Observation data for Canadian on 02/14/2020      Previous  Date  Next       Current Mesonet Observations  Soil Data  Daily Summary Page  Observations in Plain Language
KCA1 140600Z 10005KT M06/M13 A3034 RMK A01 T10561126  RH  058%=      5-min Rain = 0
KCA1 140601Z 11004KT M06/M13 A3035 RMK A01 T10561125  RH  058%=      5-min Rain = 0
KCA1 140602Z 09005KT M06/M13 A3035 RMK A01 T10561125  RH  058%=      5-min Rain = 0
KCA1 140603Z 09007KT M06/M12 A3035 RMK A01 T10561124  RH  058%=      5-min Rain = 0
KCA1 140604Z 09006KT M06/M12 A3035 RMK A01 T10561124  RH  058%=      5-min Rain = 0
KCA1 140605Z 10006KT M06/M12 A3034 RMK A01 T10561124  RH  059%=      5-min Rain = 0
KCA1 140606Z 10007KT M06/M12 A3034 RMK A01 T10561124  RH  059%=      5-min Rain = 0
KCA1 140607Z 11006KT M06/M12 A3034 RMK A01 T10561124  RH  059%=      5-min Rain = 0
KCA1 140608Z 11006KT M06/M12 A3034 RMK A01 T10561123  RH  059%=      5-min Rain = 0
KCA1 140609Z 12006KT M06/M12 A3034 RMK A01 T10551123  RH  059%=      5-min Rain = 0
KCA1 140610Z 12008KT M06/M13 A3034 RMK A01 T10551125  RH  058%=      5-min Rain = 0
KCA1 140611Z 11006KT M06/M13 A3034 RMK A01 T10551126  RH  058%=      5-min Rain = 0
KCA1 140612Z 11006KT M06/M13 A3034 RMK A01 T10551126  RH  057%=      5-min Rain = 0
KCA1 140613Z 10007KT M06/M13 A3034 RMK A01 T10551126  RH  058%=      5-min Rain = 0
KCA1 140614Z 10007KT M06/M13 A3034 RMK A01 T10551126  RH  057%=      5-min Rain = 0
KCA1 140615Z 09007KT M06/M13 A3034 RMK A01 T10561126  RH  058%=      5-min Rain = 0
KCA1 140616Z 09008KT M06/M13 A3034 RMK A01 T10551126  RH  058%=      5-min Rain = 0
KCA1 140617Z 09007KT M06/M13 A3034 RMK A01 T10551125  RH  058%=      5-min Rain = 0
KCA1 140618Z 10007KT M06/M13 A3034 RMK A01 T10561126  RH  057%=      5-min Rain = 0
KCA1 140619Z 09006KT M06/M13 A3034 RMK A01 T10551125  RH  058%=      5-min Rain = 0
KCA1 140620Z 09006KT M06/M13 A3034 RMK A01 T10551126  RH  058%=      5-min Rain = 0
KCA1 140621Z 09006KT M06/M13 A3034 RMK A01 T10551126  RH  058%=      5-min Rain = 0
KCA1 140622Z 11005KT M06/M13 A3034 RMK A01 T10551125  RH  058%=      5-min Rain = 0
KCA1 140623Z 11006KT M06/M12 A3034 RMK A01 T10561124  RH  058%=      5-min Rain = 0
KCA1 140624Z 12007KT M06/M12 A3034 RMK A01 T10561124  RH  058%=      5-min Rain = 0
KCA1 140625Z 11006KT M06/M13 A3035 RMK A01 T10551125  RH  058%=      5-min Rain = 0
KCA1 140626Z 11006KT M06/M13 A3034 RMK A01 T10551125  RH  058%=      5-min Rain = 0
KCA1 140627Z 12006KT M06/M13 A3034 RMK A01 T10561125  RH  058%=      5-min Rain = 0
KCA1 140628Z 12006KT M06/M13 A3034 RMK A01 T10561125  RH  058%=      5-min Rain = 0
KCA1 140629Z 12006KT M06/M12 A3034 RMK A01 T10561124  RH  058%=      5-min Rain = 0
KCA1 140630Z 11005KT M06/M13 A3034 RMK A01 T10551125  RH  058%=      5-min Rain = 0
KCA1 140631Z 09004KT M06/M13 A3035 RMK A01 T10551125  RH  058%=      5-min Rain = 0
KCA1 140632Z 12004KT M06/M12 A3035 RMK A01 T10561124  RH  059%=      5-min Rain = 0
KCA1 140633Z 13004KT M06/M12 A3035 RMK A01 T10561123  RH  059%=      5-min Rain = 0
KCA1 140634Z 13005KT M06/M12 A3035 RMK A01 T10551123  RH  059%=      5-min Rain = 0
KCA1 140635Z 13005KT M06/M12 A3035 RMK A01 T10551124  RH  058%=      5-min Rain = 0
KCA1 140636Z 14005KT M06/M13 A3035 RMK A01 T10551125  RH  058%=      5-min Rain = 0
KCA1 140637Z 13005KT M06/M13 A3035 RMK A01 T10561125  RH  058%=      5-min Rain = 0
KCA1 140638Z 13005KT M06/M13 A3035 RMK A01 T10551125  RH  058%=      5-min Rain = 0
KCA1 140639Z 13004KT M06/M13 A3035 RMK A01 T10551125  RH  058%=      5-min Rain = 0
KCA1 140640Z 13005KT M06/M13 A3035 RMK A01 T10561125  RH  058%=      5-min Rain = 0
KCA1 140641Z 13004KT M06/M12 A3035 RMK A01 T10561124  RH  059%=      5-min Rain = 0
KCA1 140642Z 13003KT M06/M12 A3035 RMK A01 T10561124  RH  059%=      5-min Rain = 0
KCA1 140643Z 12002KT M06/M12 A3035 RMK A01 T10561124  RH  059%=      5-min Rain = 0
KCA1 140644Z 11005KT M06/M12 A3035 RMK A01 T10561123  RH  059%=      5-min Rain = 0
KCA1 140645Z 12004KT M06/M12 A3035 RMK A01 T10561124  RH  059%=      5-min Rain = 0
KCA1 140646Z 13004KT M06/M12 A3035 RMK A01 T10561121  RH  060%=      5-min Rain = 0
KCA1 140647Z 14005KT M06/M12 A3035 RMK A01 T10571118  RH  062%=      5-min Rain = 0
KCA1 140648Z 13005KT M06/M12 A3035 RMK A01 T10581117  RH  063%=      5-min Rain = 0
KCA1 140649Z 12006KT M06/M12 A3035 RMK A01 T10581117  RH  063%=      5-min Rain = 0
KCA1 140650Z 14004KT M06/M11 A3035 RMK A01 T10591114  RH  065%=      5-min Rain = 0
KCA1 140651Z 10004KT M06/M11 A3035 RMK A01 T10601112  RH  067%=      5-min Rain = 0
KCA1 140652Z 08004KT M06/M11 A3035 RMK A01 T10621111  RH  068%=      5-min Rain = 0
KCA1 140653Z 09003KT M06/M11 A3035 RMK A01 T10631109  RH  070%=      5-min Rain = 0
KCA1 140654Z 08002KT M06/M11 A3035 RMK A01 T10631106  RH  072%=      5-min Rain = 0
KCA1 140655Z 08002KT M06/M10 A3035 RMK A01 T10641104  RH  073%=      5-min Rain = 0
KCA1 140656Z 07002KT M07/M10 A3035 RMK A01 T10651103  RH  074%=      5-min Rain = 0
KCA1 140657Z 05002KT M07/M10 A3035 RMK A01 T10661103  RH  075%=      5-min Rain = 0
KCA1 140658Z 07003KT M07/M10 A3035 RMK A01 T10661102  RH  076%=      5-min Rain = 0
KCA1 140659Z 07004KT M07/M10 A3035 RMK A01 T10671100  RH  077%=      5-min Rain = 0
KCA1 140700Z 09003KT M07/M10 A3035 RMK A01 T10671101  RH  077%=      5-min Rain = 0
KCA1 140701Z 08002KT M07/M10 A3035 RMK A01 T10681102  RH  077%=      5-min Rain = 0
KCA1 140702Z 08003KT M07/M10 A3035 RMK A01 T10681099  RH  078%=      5-min Rain = 0
KCA1 140703Z 09004KT M07/M10 A3035 RMK A01 T10681097  RH  080%=      5-min Rain = 0
KCA1 140704Z 08003KT M07/M10 A3035 RMK A01 T10681097  RH  080%=      5-min Rain = 0
KCA1 140705Z 06003KT M07/M10 A3035 RMK A01 T10691097  RH  081%=      5-min Rain = 0
KCA1 140706Z 05004KT M07/M10 A3035 RMK A01 T10691096  RH  081%=      5-min Rain = 0
KCA1 140707Z 06004KT M07/M10 A3035 RMK A01 T10691095  RH  082%=      5-min Rain = 0
KCA1 140708Z 06003KT M07/M10 A3035 RMK A01 T10701095  RH  082%=      5-min Rain = 0
KCA1 140709Z 07004KT M07/M09 A3035 RMK A01 T10701094  RH  083%=      5-min Rain = 0
KCA1 140710Z 08004KT M07/M09 A3035 RMK A01 T10701094  RH  083%=      5-min Rain = 0
KCA1 140711Z 08003KT M07/M09 A3035 RMK A01 T10701093  RH  083%=      5-min Rain = 0
KCA1 140712Z 09004KT M07/M09 A3035 RMK A01 T10701093  RH  084%=      5-min Rain = 0
KCA1 140713Z 08005KT M07/M09 A3035 RMK A01 T10701093  RH  083%=      5-min Rain = 0
KCA1 140714Z 08004KT M07/M09 A3035 RMK A01 T10701094  RH  083%=      5-min Rain = 0
KCA1 140715Z 09004KT M07/M09 A3035 RMK A01 T10701094  RH  083%=      5-min Rain = 0
KCA1 140716Z 08003KT M07/M09 A3035 RMK A01 T10701094  RH  083%=      5-min Rain = 0
KCA1 140717Z 06003KT M07/M09 A3035 RMK A01 T10701093  RH  083%=      5-min Rain = 0
KCA1 140718Z 07003KT M07/M09 A3035 RMK A01 T10701094  RH  084%=      5-min Rain = 0
KCA1 140719Z 06002KT M07/M09 A3035 RMK A01 T10701093  RH  084%=      5-min Rain = 0
KCA1 140720Z 07002KT M07/M09 A3035 RMK A01 T10711093  RH  085%=      5-min Rain = 0
KCA1 140721Z 08003KT M07/M09 A3035 RMK A01 T10711092  RH  085%=      5-min Rain = 0
KCA1 140722Z 09004KT M07/M09 A3035 RMK A01 T10711091  RH  086%=      5-min Rain = 0
KCA1 140723Z 11005KT M07/M09 A3035 RMK A01 T10711089  RH  087%=      5-min Rain = 0
KCA1 140724Z 14003KT M07/M09 A3035 RMK A01 T10721089  RH  088%=      5-min Rain = 0
KCA1 140725Z 15004KT M07/M09 A3035 RMK A01 T10721089  RH  088%=      5-min Rain = 0
KCA1 140726Z 13005KT M07/M09 A3035 RMK A01 T10721088  RH  089%=      5-min Rain = 0
KCA1 140727Z 13007KT M07/M09 A3035 RMK A01 T10721087  RH  090%=      5-min Rain = 0
KCA1 140728Z 13008KT M07/M09 A3034 RMK A01 T10731087  RH  090%=      5-min Rain = 0
KCA1 140729Z 13008KT M07/M09 A3034 RMK A01 T10741087  RH  091%=      5-min Rain = 0
KCA1 140730Z 13006KT M07/M09 A3034 RMK A01 T10741086  RH  091%=      5-min Rain = 0
KCA1 140731Z 13008KT M07/M09 A3034 RMK A01 T10741085  RH  092%=      5-min Rain = 0
KCA1 140732Z 13006KT M07/M09 A3034 RMK A01 T10741085  RH  092%=      5-min Rain = 0
KCA1 140733Z 12005KT M08/M09 A3035 RMK A01 T10751085  RH  093%=      5-min Rain = 0
KCA1 140734Z 11005KT M08/M09 A3035 RMK A01 T10751085  RH  093%=      5-min Rain = 0
KCA1 140735Z 12005KT M08/M09 A3035 RMK A01 T10751085  RH  093%=      5-min Rain = 0
KCA1 140736Z 13005KT M08/M08 A3035 RMK A01 T10751084  RH  093%=      5-min Rain = 0
KCA1 140737Z 13006KT M08/M08 A3034 RMK A01 T10761084  RH  094%=      5-min Rain = 0
KCA1 140738Z 13006KT M08/M08 A3034 RMK A01 T10761084  RH  094%=      5-min Rain = 0
KCA1 140739Z 14006KT M08/M08 A3035 RMK A01 T10751083  RH  094%=      5-min Rain = 0
KCA1 140740Z 14005KT M08/M08 A3035 RMK A01 T10761083  RH  094%=      5-min Rain = 0
KCA1 140741Z 14004KT M08/M08 A3035 RMK A01 T10751083  RH  095%=      5-min Rain = 0
KCA1 140742Z 14004KT M08/M08 A3035 RMK A01 T10751083  RH  095%=      5-min Rain = 0
KCA1 140743Z 14004KT M08/M08 A3035 RMK A01 T10751082  RH  095%=      5-min Rain = 0
KCA1 140744Z 14005KT M08/M08 A3035 RMK A01 T10761082  RH  095%=      5-min Rain = 0
KCA1 140745Z 14005KT M08/M08 A3035 RMK A01 T10761082  RH  095%=      5-min Rain = 0
KCA1 140746Z 13006KT M08/M08 A3035 RMK A01 T10761082  RH  095%=      5-min Rain = 0
KCA1 140747Z 13006KT M08/M08 A3035 RMK A01 T10761082  RH  095%=      5-min Rain = 0
KCA1 140748Z 13004KT M08/M08 A3035 RMK A01 T10751082  RH  095%=      5-min Rain = 0
KCA1 140749Z 12005KT M08/M08 A3035 RMK A01 T10751082  RH  095%=      5-min Rain = 0
KCA1 140750Z 14005KT M08/M08 A3035 RMK A01 T10751082  RH  095%=      5-min Rain = 0
KCA1 140751Z 13008KT M08/M08 A3035 RMK A01 T10751081  RH  095%=      5-min Rain = 0
KCA1 140752Z 14007KT M08/M08 A3035 RMK A01 T10751082  RH  095%=      5-min Rain = 0
KCA1 140753Z 14007KT M08/M08 A3035 RMK A01 T10761082  RH  095%=      5-min Rain = 0
KCA1 140754Z 14007KT M08/M08 A3035 RMK A01 T10751082  RH  095%=      5-min Rain = 0
KCA1 140755Z 14007KT M08/M08 A3035 RMK A01 T10761083  RH  095%=      5-min Rain = 0
KCA1 140756Z 15006KT M08/M08 A3035 RMK A01 T10751082  RH  095%=      5-min Rain = 0
KCA1 140757Z 14006KT M08/M08 A3035 RMK A01 T10751083  RH  095%=      5-min Rain = 0
KCA1 140758Z 14006KT M08/M08 A3035 RMK A01 T10761083  RH  095%=      5-min Rain = 0
KCA1 140759Z 13006KT M08/M08 A3035 RMK A01 T10761083  RH  095%=      5-min Rain = 0
KCA1 140800Z 13006KT M08/M08 A3035 RMK A01 T10761083  RH  095%=      5-min Rain = 0
KCA1 140801Z 13006KT M08/M08 A3035 RMK A01 T10761083  RH  095%=      5-min Rain = 0
KCA1 140802Z 14005KT M08/M08 A3035 RMK A01 T10761083  RH  095%=      5-min Rain = 0
KCA1 140803Z 14005KT M08/M08 A3035 RMK A01 T10761083  RH  095%=      5-min Rain = 0
KCA1 140804Z 14006KT M08/M08 A3035 RMK A01 T10761083  RH  095%=      5-min Rain = 0
KCA1 140805Z 14006KT M08/M08 A3035 RMK A01 T10761083  RH  095%=      5-min Rain = 0
KCA1 140806Z 14005KT M08/M08 A3035 RMK A01 T10761083  RH  095%=      5-min Rain = 0
KCA1 140807Z 13004KT M08/M08 A3035 RMK A01 T10761083  RH  095%=      5-min Rain = 0
KCA1 140808Z 13004KT M08/M08 A3035 RMK A01 T10761083  RH  095%=      5-min Rain = 0
KCA1 140809Z 13004KT M08/M08 A3035 RMK A01 T10761083  RH  095%=      5-min Rain = 0
KCA1 140810Z 13004KT M08/M08 A3035 RMK A01 T10751082  RH  095%=      5-min Rain = 0
KCA1 140811Z 12004KT M08/M08 A3035 RMK A01 T10761083  RH  095%=      5-min Rain = 0
KCA1 140812Z 12004KT M08/M08 A3035 RMK A01 T10761083  RH  095%=      5-min Rain = 0
KCA1 140813Z 11004KT M08/M08 A3035 RMK A01 T10751082  RH  095%=      5-min Rain = 0
KCA1 140814Z 12004KT M08/M08 A3035 RMK A01 T10761083  RH  095%=      5-min Rain = 0
KCA1 140815Z 12006KT M08/M08 A3034 RMK A01 T10751083  RH  095%=      5-min Rain = 0
KCA1 140816Z 13004KT M08/M08 A3034 RMK A01 T10751083  RH  094%=      5-min Rain = 0
KCA1 140817Z 12004KT M08/M08 A3035 RMK A01 T10761084  RH  094%=      5-min Rain = 0
KCA1 140818Z 12005KT M08/M08 A3035 RMK A01 T10751084  RH  094%=      5-min Rain = 0
KCA1 140819Z 12005KT M08/M08 A3035 RMK A01 T10761084  RH  094%=      5-min Rain = 0
KCA1 140820Z 12005KT M08/M08 A3035 RMK A01 T10751084  RH  094%=      5-min Rain = 0
KCA1 140821Z 13005KT M08/M08 A3035 RMK A01 T10751084  RH  094%=      5-min Rain = 0
KCA1 140822Z 13006KT M08/M08 A3035 RMK A01 T10761084  RH  094%=      5-min Rain = 0
KCA1 140823Z 12006KT M08/M08 A3035 RMK A01 T10761084  RH  094%=      5-min Rain = 0
KCA1 140824Z 12004KT M08/M08 A3035 RMK A01 T10761084  RH  094%=      5-min Rain = 0
KCA1 140825Z 12004KT M08/M08 A3035 RMK A01 T10761084  RH  094%=      5-min Rain = 0
KCA1 140826Z 13004KT M08/M08 A3035 RMK A01 T10751084  RH  094%=      5-min Rain = 0
KCA1 140827Z 13004KT M08/M08 A3035 RMK A01 T10761084  RH  094%=      5-min Rain = 0
KCA1 140828Z 13004KT M08/M08 A3035 RMK A01 T10751083  RH  094%=      5-min Rain = 0
KCA1 140829Z 13004KT M08/M08 A3035 RMK A01 T10751083  RH  094%=      5-min Rain = 0
KCA1 140830Z 13005KT M08/M08 A3035 RMK A01 T10751084  RH  094%=      5-min Rain = 0
KCA1 140831Z 13004KT M08/M08 A3035 RMK A01 T10751084  RH  094%=      5-min Rain = 0
KCA1 140832Z 13005KT M08/M08 A3035 RMK A01 T10751084  RH  093%=      5-min Rain = 0
KCA1 140833Z 13006KT M08/M08 A3035 RMK A01 T10751084  RH  093%=      5-min Rain = 0
KCA1 140834Z 13005KT M08/M08 A3035 RMK A01 T10751084  RH  093%=      5-min Rain = 0
KCA1 140835Z 12005KT M08/M09 A3035 RMK A01 T10751085  RH  093%=      5-min Rain = 0
KCA1 140836Z 12005KT M08/M09 A3034 RMK A01 T10761085  RH  093%=      5-min Rain = 0
KCA1 140837Z 12005KT M08/M09 A3035 RMK A01 T10761085  RH  093%=      5-min Rain = 0
KCA1 140838Z 13004KT M08/M08 A3035 RMK A01 T10751084  RH  093%=      5-min Rain = 0
KCA1 140839Z 13005KT M08/M08 A3035 RMK A01 T10751084  RH  093%=      5-min Rain = 0
KCA1 140840Z 13006KT M08/M08 A3035 RMK A01 T10751084  RH  093%=      5-min Rain = 0
KCA1 140841Z 12006KT M08/M09 A3035 RMK A01 T10751085  RH  093%=      5-min Rain = 0
KCA1 140842Z 13005KT M08/M09 A3035 RMK A01 T10751085  RH  092%=      5-min Rain = 0
KCA1 140843Z 14005KT M08/M09 A3035 RMK A01 T10751085  RH  092%=      5-min Rain = 0
KCA1 140844Z 13005KT M08/M09 A3034 RMK A01 T10751086  RH  092%=      5-min Rain = 0
KCA1 140845Z 13005KT M08/M09 A3034 RMK A01 T10751085  RH  093%=      5-min Rain = 0
KCA1 140846Z 13006KT M08/M09 A3034 RMK A01 T10751085  RH  093%=      5-min Rain = 0
KCA1 140847Z 13005KT M08/M09 A3034 RMK A01 T10751085  RH  093%=      5-min Rain = 0
KCA1 140848Z 12005KT M08/M09 A3034 RMK A01 T10751085  RH  093%=      5-min Rain = 0
KCA1 140849Z 12004KT M08/M09 A3034 RMK A01 T10751085  RH  093%=      5-min Rain = 0
KCA1 140850Z 13004KT M08/M09 A3034 RMK A01 T10751085  RH  093%=      5-min Rain = 0
KCA1 140851Z 14004KT M08/M09 A3035 RMK A01 T10751085  RH  093%=      5-min Rain = 0
KCA1 140852Z 14004KT M08/M09 A3034 RMK A01 T10751085  RH  093%=      5-min Rain = 0
KCA1 140853Z 15005KT M07/M09 A3035 RMK A01 T10741085  RH  093%=      5-min Rain = 0
KCA1 140854Z 14005KT M08/M09 A3035 RMK A01 T10751085  RH  093%=      5-min Rain = 0
KCA1 140855Z 15005KT M08/M09 A3035 RMK A01 T10751085  RH  092%=      5-min Rain = 0
KCA1 140856Z 14005KT M08/M09 A3035 RMK A01 T10751085  RH  092%=      5-min Rain = 0
KCA1 140857Z 14004KT M08/M09 A3035 RMK A01 T10751086  RH  092%=      5-min Rain = 0
KCA1 140858Z 14004KT M08/M09 A3035 RMK A01 T10751086  RH  092%=      5-min Rain = 0
KCA1 140859Z 14005KT M08/M09 A3035 RMK A01 T10751086  RH  092%=      5-min Rain = 0
KCA1 140900Z 14005KT M08/M09 A3035 RMK A01 T10751086  RH  092%=      5-min Rain = 0
KCA1 140901Z 15003KT M08/M09 A3035 RMK A01 T10751086  RH  092%=      5-min Rain = 0
KCA1 140902Z 15005KT M07/M09 A3035 RMK A01 T10741085  RH  092%=      5-min Rain = 0
KCA1 140903Z 15005KT M07/M09 A3035 RMK A01 T10741085  RH  092%=      5-min Rain = 0
KCA1 140904Z 14006KT M07/M09 A3035 RMK A01 T10741086  RH  092%=      5-min Rain = 0
KCA1 140905Z 15006KT M07/M09 A3035 RMK A01 T10741086  RH  091%=      5-min Rain = 0
KCA1 140906Z 15005KT M07/M09 A3035 RMK A01 T10741086  RH  091%=      5-min Rain = 0
KCA1 140907Z 15005KT M07/M09 A3035 RMK A01 T10741087  RH  091%=      5-min Rain = 0
KCA1 140908Z 15005KT M08/M09 A3035 RMK A01 T10751087  RH  091%=      5-min Rain = 0
KCA1 140909Z 15006KT M08/M09 A3035 RMK A01 T10751087  RH  091%=      5-min Rain = 0
KCA1 140910Z 15004KT M08/M09 A3035 RMK A01 T10751087  RH  091%=      5-min Rain = 0
KCA1 140911Z 15005KT M08/M09 A3035 RMK A01 T10751087  RH  091%=      5-min Rain = 0
KCA1 140912Z 15006KT M07/M09 A3035 RMK A01 T10741086  RH  091%=      5-min Rain = 0
KCA1 140913Z 15006KT M08/M09 A3035 RMK A01 T10751087  RH  091%=      5-min Rain = 0
KCA1 140914Z 15006KT M08/M09 A3035 RMK A01 T10751087  RH  091%=      5-min Rain = 0
KCA1 140915Z 14006KT M07/M09 A3035 RMK A01 T10741086  RH  091%=      5-min Rain = 0
KCA1 140916Z 14005KT M08/M09 A3035 RMK A01 T10751087  RH  091%=      5-min Rain = 0
KCA1 140917Z 14005KT M08/M09 A3035 RMK A01 T10751087  RH  091%=      5-min Rain = 0
KCA1 140918Z 14005KT M07/M09 A3035 RMK A01 T10741086  RH  091%=      5-min Rain = 0
KCA1 140919Z 14005KT M07/M09 A3035 RMK A01 T10741086  RH  091%=      5-min Rain = 0
KCA1 140920Z 14005KT M07/M09 A3034 RMK A01 T10741086  RH  091%=      5-min Rain = 0
KCA1 140921Z 14006KT M07/M09 A3034 RMK A01 T10741086  RH  091%=      5-min Rain = 0
KCA1 140922Z 14005KT M07/M09 A3034 RMK A01 T10741086  RH  091%=      5-min Rain = 0
KCA1 140923Z 14005KT M07/M09 A3034 RMK A01 T10741086  RH  091%=      5-min Rain = 0
KCA1 140924Z 14005KT M07/M09 A3034 RMK A01 T10741086  RH  091%=      5-min Rain = 0
KCA1 140925Z 14006KT M08/M09 A3034 RMK A01 T10751087  RH  091%=      5-min Rain = 0
KCA1 140926Z 14005KT M08/M09 A3034 RMK A01 T10751087  RH  091%=      5-min Rain = 0
KCA1 140927Z 14005KT M08/M09 A3034 RMK A01 T10751087  RH  091%=      5-min Rain = 0
KCA1 140928Z 14005KT M08/M09 A3034 RMK A01 T10751087  RH  091%=      5-min Rain = 0
KCA1 140929Z 14005KT M08/M09 A3034 RMK A01 T10751087  RH  091%=      5-min Rain = 0
KCA1 140930Z 14005KT M08/M09 A3034 RMK A01 T10751086  RH  091%=      5-min Rain = 0
KCA1 140931Z 14005KT M08/M09 A3034 RMK A01 T10751086  RH  092%=      5-min Rain = 0
KCA1 140932Z 14005KT M08/M09 A3034 RMK A01 T10751086  RH  092%=      5-min Rain = 0
KCA1 140933Z 15005KT M07/M09 A3034 RMK A01 T10741085  RH  092%=      5-min Rain = 0
KCA1 140934Z 14003KT M08/M09 A3034 RMK A01 T10751085  RH  092%=      5-min Rain = 0
KCA1 140935Z 14004KT M07/M09 A3034 RMK A01 T10741085  RH  092%=      5-min Rain = 0
KCA1 140936Z 14004KT M07/M08 A3034 RMK A01 T10741084  RH  093%=      5-min Rain = 0
KCA1 140937Z 15004KT M07/M08 A3034 RMK A01 T10741084  RH  093%=      5-min Rain = 0
KCA1 140938Z 15005KT M07/M08 A3034 RMK A01 T10741084  RH  093%=      5-min Rain = 0
KCA1 140939Z 14005KT M07/M08 A3034 RMK A01 T10741084  RH  093%=      5-min Rain = 0
KCA1 140940Z 14005KT M07/M08 A3034 RMK A01 T10741084  RH  092%=      5-min Rain = 0
KCA1 140941Z 14005KT M07/M08 A3034 RMK A01 T10741084  RH  092%=      5-min Rain = 0
KCA1 140942Z 14004KT M07/M08 A3034 RMK A01 T10741084  RH  092%=      5-min Rain = 0
KCA1 140943Z 13005KT M07/M08 A3034 RMK A01 T10741084  RH  092%=      5-min Rain = 0
KCA1 140944Z 13005KT M07/M08 A3034 RMK A01 T10741084  RH  092%=      5-min Rain = 0
KCA1 140945Z 14004KT M07/M08 A3034 RMK A01 T10741084  RH  092%=      5-min Rain = 0
KCA1 140946Z 13004KT M07/M08 A3034 RMK A01 T10741084  RH  092%=      5-min Rain = 0
KCA1 140947Z 13005KT M07/M08 A3034 RMK A01 T10741084  RH  093%=      5-min Rain = 0
KCA1 140948Z 12005KT M07/M08 A3034 RMK A01 T10741084  RH  093%=      5-min Rain = 0
KCA1 140949Z 13005KT M07/M08 A3034 RMK A01 T10741084  RH  093%=      5-min Rain = 0
KCA1 140950Z 13005KT M07/M08 A3034 RMK A01 T10741084  RH  092%=      5-min Rain = 0
KCA1 140951Z 13004KT M07/M08 A3034 RMK A01 T10741084  RH  093%=      5-min Rain = 0
KCA1 140952Z 13004KT M07/M08 A3034 RMK A01 T10741084  RH  093%=      5-min Rain = 0
KCA1 140953Z 13005KT M07/M08 A3034 RMK A01 T10741084  RH  093%=      5-min Rain = 0
KCA1 140954Z 13006KT M07/M08 A3034 RMK A01 T10741084  RH  093%=      5-min Rain = 0
KCA1 140955Z 14005KT M07/M08 A3033 RMK A01 T10741084  RH  093%=      5-min Rain = 0
KCA1 140956Z 14005KT M07/M08 A3033 RMK A01 T10741084  RH  092%=      5-min Rain = 0
KCA1 140957Z 13005KT M07/M08 A3033 RMK A01 T10741084  RH  092%=      5-min Rain = 0
KCA1 140958Z 13005KT M07/M08 A3033 RMK A01 T10741084  RH  093%=      5-min Rain = 0
KCA1 140959Z 12005KT M07/M08 A3033 RMK A01 T10741084  RH  093%=      5-min Rain = 0
KCA1 141000Z 12005KT M07/M08 A3033 RMK A01 T10741084  RH  093%=      5-min Rain = 0
KCA1 141001Z 13005KT M07/M08 A3033 RMK A01 T10741084  RH  093%=      5-min Rain = 0
KCA1 141002Z 13005KT M07/M08 A3033 RMK A01 T10741084  RH  092%=      5-min Rain = 0
KCA1 141003Z 13005KT M07/M08 A3033 RMK A01 T10741084  RH  093%=      5-min Rain = 0
KCA1 141004Z 13005KT M07/M08 A3033 RMK A01 T10741084  RH  092%=      5-min Rain = 0
KCA1 141005Z 13004KT M07/M08 A3033 RMK A01 T10741084  RH  092%=      5-min Rain = 0
KCA1 141006Z 13005KT M07/M08 A3033 RMK A01 T10741084  RH  092%=      5-min Rain = 0
KCA1 141007Z 13005KT M07/M08 A3033 RMK A01 T10731084  RH  092%=      5-min Rain = 0
KCA1 141008Z 13005KT M07/M08 A3033 RMK A01 T10731084  RH  092%=      5-min Rain = 0
KCA1 141009Z 13005KT M07/M08 A3033 RMK A01 T10731084  RH  092%=      5-min Rain = 0
KCA1 141010Z 13005KT M07/M08 A3033 RMK A01 T10731084  RH  092%=      5-min Rain = 0
KCA1 141011Z 14005KT M07/M08 A3033 RMK A01 T10731084  RH  092%=      5-min Rain = 0
KCA1 141012Z 14005KT M07/M08 A3033 RMK A01 T10731084  RH  092%=      5-min Rain = 0
KCA1 141013Z 14004KT M07/M08 A3033 RMK A01 T10731083  RH  092%=      5-min Rain = 0
KCA1 141014Z 13005KT M07/M08 A3033 RMK A01 T10721083  RH  092%=      5-min Rain = 0
KCA1 141015Z 14006KT M07/M08 A3033 RMK A01 T10721082  RH  093%=      5-min Rain = 0
KCA1 141016Z 14005KT M07/M08 A3033 RMK A01 T10721083  RH  092%=      5-min Rain = 0
KCA1 141017Z 14006KT M07/M08 A3033 RMK A01 T10721083  RH  092%=      5-min Rain = 0
KCA1 141018Z 14005KT M07/M08 A3033 RMK A01 T10721083  RH  092%=      5-min Rain = 0
KCA1 141019Z 15004KT M07/M08 A3033 RMK A01 T10721083  RH  092%=      5-min Rain = 0
KCA1 141020Z 15004KT M07/M08 A3033 RMK A01 T10721082  RH  092%=      5-min Rain = 0
KCA1 141021Z 14004KT M07/M08 A3033 RMK A01 T10721082  RH  092%=      5-min Rain = 0
KCA1 141022Z 15004KT M07/M08 A3033 RMK A01 T10721082  RH  092%=      5-min Rain = 0
KCA1 141023Z 16005KT M07/M08 A3033 RMK A01 T10711081  RH  092%=      5-min Rain = 0
KCA1 141024Z 16006KT M07/M08 A3033 RMK A01 T10711082  RH  092%=      5-min Rain = 0
KCA1 141025Z 16006KT M07/M08 A3033 RMK A01 T10721082  RH  092%=      5-min Rain = 0
KCA1 141026Z 15006KT M07/M08 A3033 RMK A01 T10711083  RH  092%=      5-min Rain = 0
KCA1 141027Z 16004KT M07/M08 A3033 RMK A01 T10711083  RH  092%=      5-min Rain = 0
KCA1 141028Z 16006KT M07/M08 A3033 RMK A01 T10721083  RH  092%=      5-min Rain = 0
KCA1 141029Z 16006KT M07/M08 A3033 RMK A01 T10721083  RH  092%=      5-min Rain = 0
KCA1 141030Z 15005KT M07/M08 A3033 RMK A01 T10711082  RH  092%=      5-min Rain = 0
KCA1 141031Z 15006KT M07/M08 A3033 RMK A01 T10721083  RH  092%=      5-min Rain = 0
KCA1 141032Z 15006KT M07/M08 A3033 RMK A01 T10721084  RH  091%=      5-min Rain = 0
KCA1 141033Z 15006KT M07/M09 A3033 RMK A01 T10721085  RH  091%=      5-min Rain = 0
KCA1 141034Z 15004KT M07/M09 A3033 RMK A01 T10721085  RH  090%=      5-min Rain = 0
KCA1 141035Z 15004KT M07/M09 A3033 RMK A01 T10721085  RH  090%=      5-min Rain = 0
KCA1 141036Z 15005KT M07/M09 A3033 RMK A01 T10721085  RH  091%=      5-min Rain = 0
KCA1 141037Z 15005KT M07/M09 A3033 RMK A01 T10721085  RH  090%=      5-min Rain = 0
KCA1 141038Z 15005KT M07/M09 A3033 RMK A01 T10721086  RH  090%=      5-min Rain = 0
KCA1 141039Z 15006KT M07/M09 A3033 RMK A01 T10721085  RH  090%=      5-min Rain = 0
KCA1 141040Z 15005KT M07/M09 A3033 RMK A01 T10721086  RH  090%=      5-min Rain = 0
KCA1 141041Z 16005KT M07/M09 A3033 RMK A01 T10721086  RH  090%=      5-min Rain = 0
KCA1 141042Z 15005KT M07/M09 A3033 RMK A01 T10721086  RH  090%=      5-min Rain = 0
KCA1 141043Z 14005KT M07/M09 A3033 RMK A01 T10721086  RH  090%=      5-min Rain = 0
KCA1 141044Z 14006KT M07/M09 A3033 RMK A01 T10721086  RH  090%=      5-min Rain = 0
KCA1 141045Z 15006KT M07/M09 A3033 RMK A01 T10721086  RH  090%=      5-min Rain = 0
KCA1 141046Z 15005KT M07/M09 A3033 RMK A01 T10721086  RH  090%=      5-min Rain = 0
KCA1 141047Z 15004KT M07/M09 A3033 RMK A01 T10721086  RH  090%=      5-min Rain = 0
KCA1 141048Z 14005KT M07/M09 A3033 RMK A01 T10721086  RH  090%=      5-min Rain = 0
KCA1 141049Z 15005KT M07/M09 A3033 RMK A01 T10721086  RH  090%=      5-min Rain = 0
KCA1 141050Z 13005KT M07/M09 A3033 RMK A01 T10721086  RH  090%=      5-min Rain = 0
KCA1 141051Z 14005KT M07/M09 A3033 RMK A01 T10721086  RH  090%=      5-min Rain = 0
KCA1 141052Z 14005KT M07/M09 A3033 RMK A01 T10731087  RH  089%=      5-min Rain = 0
KCA1 141053Z 14005KT M07/M09 A3033 RMK A01 T10731087  RH  089%=      5-min Rain = 0
KCA1 141054Z 14005KT M07/M09 A3033 RMK A01 T10731087  RH  089%=      5-min Rain = 0
KCA1 141055Z 14006KT M07/M09 A3033 RMK A01 T10731087  RH  090%=      5-min Rain = 0
KCA1 141056Z 14005KT M07/M09 A3033 RMK A01 T10731087  RH  090%=      5-min Rain = 0
KCA1 141057Z 14005KT M07/M09 A3033 RMK A01 T10731087  RH  090%=      5-min Rain = 0
KCA1 141058Z 15006KT M07/M09 A3033 RMK A01 T10731087  RH  090%=      5-min Rain = 0
KCA1 141059Z 15005KT M07/M09 A3033 RMK A01 T10731086  RH  090%=      5-min Rain = 0
KCA1 141100Z 15004KT M07/M09 A3033 RMK A01 T10731087  RH  090%=      5-min Rain = 0
KCA1 141101Z 16003KT M07/M09 A3033 RMK A01 T10731086  RH  090%=      5-min Rain = 0
KCA1 141102Z 15003KT M07/M09 A3033 RMK A01 T10721086  RH  090%=      5-min Rain = 0
KCA1 141103Z 15004KT M07/M09 A3033 RMK A01 T10721086  RH  090%=      5-min Rain = 0
KCA1 141104Z 14006KT M07/M09 A3033 RMK A01 T10721086  RH  090%=      5-min Rain = 0
KCA1 141105Z 14006KT M07/M09 A3033 RMK A01 T10721087  RH  090%=      5-min Rain = 0
KCA1 141106Z 15005KT M07/M09 A3033 RMK A01 T10721087  RH  089%=      5-min Rain = 0
KCA1 141107Z 15005KT M07/M09 A3032 RMK A01 T10721087  RH  089%=      5-min Rain = 0
KCA1 141108Z 15005KT M07/M09 A3032 RMK A01 T10731088  RH  089%=      5-min Rain = 0
KCA1 141109Z 14005KT M07/M09 A3032 RMK A01 T10731088  RH  089%=      5-min Rain = 0
KCA1 141110Z 14005KT M07/M09 A3032 RMK A01 T10731088  RH  089%=      5-min Rain = 0
KCA1 141111Z 14005KT M07/M09 A3032 RMK A01 T10731088  RH  089%=      5-min Rain = 0
KCA1 141112Z 14005KT M07/M09 A3032 RMK A01 T10731087  RH  089%=      5-min Rain = 0
KCA1 141113Z 14005KT M07/M09 A3032 RMK A01 T10731087  RH  089%=      5-min Rain = 0
KCA1 141114Z 14006KT M07/M09 A3032 RMK A01 T10731088  RH  089%=      5-min Rain = 0
KCA1 141115Z 13006KT M07/M09 A3032 RMK A01 T10731087  RH  089%=      5-min Rain = 0
KCA1 141116Z 14005KT M07/M09 A3032 RMK A01 T10731087  RH  089%=      5-min Rain = 0
KCA1 141117Z 14006KT M07/M09 A3032 RMK A01 T10731088  RH  089%=      5-min Rain = 0
KCA1 141118Z 14005KT M07/M09 A3032 RMK A01 T10731088  RH  090%=      5-min Rain = 0
KCA1 141119Z 14005KT M07/M09 A3032 RMK A01 T10731087  RH  090%=      5-min Rain = 0
KCA1 141120Z 14004KT M07/M09 A3032 RMK A01 T10731087  RH  090%=      5-min Rain = 0
KCA1 141121Z 13005KT M07/M09 A3032 RMK A01 T10731087  RH  090%=      5-min Rain = 0
KCA1 141122Z 13004KT M07/M09 A3032 RMK A01 T10731086  RH  090%=      5-min Rain = 0
KCA1 141123Z 14005KT M07/M09 A3032 RMK A01 T10731087  RH  090%=      5-min Rain = 0
KCA1 141124Z 14005KT M07/M09 A3032 RMK A01 T10731087  RH  090%=      5-min Rain = 0
KCA1 141125Z 14005KT M07/M09 A3032 RMK A01 T10731087  RH  090%=      5-min Rain = 0
KCA1 141126Z 13004KT M07/M09 A3032 RMK A01 T10731087  RH  090%=      5-min Rain = 0
KCA1 141127Z 15005KT M07/M09 A3032 RMK A01 T10731087  RH  090%=      5-min Rain = 0
KCA1 141128Z 14005KT M07/M09 A3032 RMK A01 T10731086  RH  090%=      5-min Rain = 0
KCA1 141129Z 14005KT M07/M09 A3032 RMK A01 T10731087  RH  090%=      5-min Rain = 0
KCA1 141130Z 14006KT M07/M09 A3032 RMK A01 T10731087  RH  090%=      5-min Rain = 0
KCA1 141131Z 14005KT M07/M09 A3032 RMK A01 T10731087  RH  090%=      5-min Rain = 0
KCA1 141132Z 14004KT M07/M09 A3032 RMK A01 T10731087  RH  090%=      5-min Rain = 0
KCA1 141133Z 13006KT M07/M09 A3032 RMK A01 T10721086  RH  090%=      5-min Rain = 0
KCA1 141134Z 13006KT M07/M09 A3032 RMK A01 T10721087  RH  090%=      5-min Rain = 0
KCA1 141135Z 14005KT M07/M09 A3032 RMK A01 T10721087  RH  090%=      5-min Rain = 0
KCA1 141136Z 13004KT M07/M09 A3032 RMK A01 T10721086  RH  090%=      5-min Rain = 0
KCA1 141137Z 14005KT M07/M09 A3032 RMK A01 T10721086  RH  090%=      5-min Rain = 0
KCA1 141138Z 13005KT M07/M09 A3032 RMK A01 T10721087  RH  090%=      5-min Rain = 0
KCA1 141139Z 14005KT M07/M09 A3032 RMK A01 T10721086  RH  090%=      5-min Rain = 0
KCA1 141140Z 14005KT M07/M09 A3032 RMK A01 T10721087  RH  090%=      5-min Rain = 0
KCA1 141141Z 14004KT M07/M09 A3032 RMK A01 T10721087  RH  090%=      5-min Rain = 0
KCA1 141142Z 14006KT M07/M09 A3032 RMK A01 T10721086  RH  090%=      5-min Rain = 0
KCA1 141143Z 15006KT M07/M09 A3032 RMK A01 T10721086  RH  090%=      5-min Rain = 0
KCA1 141144Z 15006KT M07/M09 A3032 RMK A01 T10721086  RH  090%=      5-min Rain = 0
KCA1 141145Z 14005KT M07/M09 A3032 RMK A01 T10721086  RH  090%=      5-min Rain = 0
KCA1 141146Z 14006KT M07/M09 A3032 RMK A01 T10721086  RH  090%=      5-min Rain = 0
KCA1 141147Z 14006KT M07/M09 A3032 RMK A01 T10721086  RH  090%=      5-min Rain = 0
KCA1 141148Z 14006KT M07/M09 A3032 RMK A01 T10721086  RH  090%=      5-min Rain = 0
KCA1 141149Z 13006KT M07/M09 A3032 RMK A01 T10721086  RH  090%=      5-min Rain = 0
KCA1 141150Z 14006KT M07/M09 A3032 RMK A01 T10721086  RH  090%=      5-min Rain = 0
KCA1 141151Z 14005KT M07/M09 A3032 RMK A01 T10721086  RH  090%=      5-min Rain = 0
KCA1 141152Z 14006KT M07/M09 A3032 RMK A01 T10721086  RH  090%=      5-min Rain = 0
KCA1 141153Z 14006KT M07/M09 A3032 RMK A01 T10721086  RH  090%=      5-min Rain = 0
KCA1 141154Z 14005KT M07/M09 A3032 RMK A01 T10721086  RH  090%=      5-min Rain = 0
KCA1 141155Z 14006KT M07/M09 A3032 RMK A01 T10721086  RH  090%=      5-min Rain = 0
KCA1 141156Z 15006KT M07/M09 A3032 RMK A01 T10721086  RH  090%=      5-min Rain = 0
KCA1 141157Z 14006KT M07/M09 A3032 RMK A01 T10721086  RH  090%=      5-min Rain = 0
KCA1 141158Z 13006KT M07/M09 A3032 RMK A01 T10721086  RH  090%=      5-min Rain = 0
KCA1 141159Z 14005KT M07/M09 A3032 RMK A01 T10721086  RH  090%=      5-min Rain = 0
KCA1 141200Z 14006KT M07/M09 A3032 RMK A01 T10721086  RH  090%=      5-min Rain = 0
KCA1 141201Z 14006KT M07/M09 A3032 RMK A01 T10721086  RH  090%=      5-min Rain = 0
KCA1 141202Z 14004KT M07/M09 A3032 RMK A01 T10721086  RH  090%=      5-min Rain = 0
KCA1 141203Z 14006KT M07/M09 A3032 RMK A01 T10721086  RH  090%=      5-min Rain = 0
KCA1 141204Z 14005KT M07/M09 A3032 RMK A01 T10721086  RH  090%=      5-min Rain = 0
KCA1 141205Z 14005KT M07/M09 A3032 RMK A01 T10721086  RH  090%=      5-min Rain = 0
KCA1 141206Z 13005KT M07/M09 A3032 RMK A01 T10721086  RH  090%=      5-min Rain = 0
KCA1 141207Z 14006KT M07/M09 A3032 RMK A01 T10721085  RH  090%=      5-min Rain = 0
KCA1 141208Z 13007KT M07/M09 A3032 RMK A01 T10721085  RH  090%=      5-min Rain = 0
KCA1 141209Z 14007KT M07/M09 A3032 RMK A01 T10721086  RH  090%=      5-min Rain = 0
KCA1 141210Z 14007KT M07/M09 A3032 RMK A01 T10721086  RH  090%=      5-min Rain = 0
KCA1 141211Z 14007KT M07/M09 A3032 RMK A01 T10721086  RH  090%=      5-min Rain = 0
KCA1 141212Z 14006KT M07/M09 A3032 RMK A01 T10721086  RH  090%=      5-min Rain = 0
KCA1 141213Z 14007KT M07/M09 A3032 RMK A01 T10721086  RH  090%=      5-min Rain = 0
KCA1 141214Z 14007KT M07/M09 A3032 RMK A01 T10721086  RH  090%=      5-min Rain = 0
KCA1 141215Z 14007KT M07/M09 A3032 RMK A01 T10721086  RH  090%=      5-min Rain = 0
KCA1 141216Z 14006KT M07/M09 A3032 RMK A01 T10721086  RH  090%=      5-min Rain = 0
KCA1 141217Z 14006KT M07/M09 A3032 RMK A01 T10721086  RH  090%=      5-min Rain = 0
KCA1 141218Z 13005KT M07/M09 A3032 RMK A01 T10721086  RH  090%=      5-min Rain = 0
KCA1 141219Z 14006KT M07/M09 A3032 RMK A01 T10721085  RH  090%=      5-min Rain = 0
KCA1 141220Z 14007KT M07/M09 A3032 RMK A01 T10721086  RH  090%=      5-min Rain = 0
KCA1 141221Z 14007KT M07/M09 A3032 RMK A01 T10721086  RH  090%=      5-min Rain = 0
KCA1 141222Z 13008KT M07/M09 A3032 RMK A01 T10721086  RH  090%=      5-min Rain = 0
KCA1 141223Z 13007KT M07/M09 A3032 RMK A01 T10721086  RH  090%=      5-min Rain = 0
KCA1 141224Z 14005KT M07/M09 A3032 RMK A01 T10721087  RH  090%=      5-min Rain = 0
KCA1 141225Z 13006KT M07/M09 A3032 RMK A01 T10721086  RH  090%=      5-min Rain = 0
KCA1 141226Z 13006KT M07/M09 A3032 RMK A01 T10721086  RH  090%=      5-min Rain = 0
KCA1 141227Z 13006KT M07/M09 A3032 RMK A01 T10721086  RH  090%=      5-min Rain = 0
KCA1 141228Z 13006KT M07/M09 A3032 RMK A01 T10721086  RH  090%=      5-min Rain = 0
KCA1 141229Z 13006KT M07/M09 A3032 RMK A01 T10721085  RH  090%=      5-min Rain = 0
KCA1 141230Z 13005KT M07/M09 A3032 RMK A01 T10721086  RH  090%=      5-min Rain = 0
KCA1 141231Z 14006KT M07/M09 A3032 RMK A01 T10721086  RH  090%=      5-min Rain = 0
KCA1 141232Z 14005KT M07/M09 A3032 RMK A01 T10711085  RH  090%=      5-min Rain = 0
KCA1 141233Z 14006KT M07/M09 A3032 RMK A01 T10711085  RH  090%=      5-min Rain = 0
KCA1 141234Z 13005KT M07/M08 A3032 RMK A01 T10711084  RH  091%=      5-min Rain = 0
KCA1 141235Z 13006KT M07/M08 A3032 RMK A01 T10711084  RH  090%=      5-min Rain = 0
KCA1 141236Z 13006KT M07/M09 A3032 RMK A01 T10711085  RH  090%=      5-min Rain = 0
KCA1 141237Z 13006KT M07/M08 A3032 RMK A01 T10711084  RH  090%=      5-min Rain = 0
KCA1 141238Z 14006KT M07/M08 A3032 RMK A01 T10711084  RH  090%=      5-min Rain = 0
KCA1 141239Z 13006KT M07/M08 A3032 RMK A01 T10711084  RH  090%=      5-min Rain = 0
KCA1 141240Z 14006KT M07/M08 A3032 RMK A01 T10711084  RH  090%=      5-min Rain = 0
KCA1 141241Z 14006KT M07/M08 A3032 RMK A01 T10711084  RH  090%=      5-min Rain = 0
KCA1 141242Z 14007KT M07/M08 A3032 RMK A01 T10711084  RH  090%=      5-min Rain = 0
KCA1 141243Z 14006KT M07/M08 A3032 RMK A01 T10711084  RH  090%=      5-min Rain = 0
KCA1 141244Z 14007KT M07/M08 A3032 RMK A01 T10711084  RH  090%=      5-min Rain = 0
KCA1 141245Z 14008KT M07/M08 A3032 RMK A01 T10711084  RH  090%=      5-min Rain = 0
KCA1 141246Z 14008KT M07/M08 A3032 RMK A01 T10701084  RH  090%=      5-min Rain = 0
KCA1 141247Z 14007KT M07/M08 A3032 RMK A01 T10701084  RH  090%=      5-min Rain = 0
KCA1 141248Z 14007KT M07/M08 A3032 RMK A01 T10701084  RH  090%=      5-min Rain = 0
KCA1 141249Z 14006KT M07/M08 A3032 RMK A01 T10701084  RH  090%=      5-min Rain = 0
KCA1 141250Z 14006KT M07/M08 A3032 RMK A01 T10701083  RH  090%=      5-min Rain = 0
KCA1 141251Z 14007KT M07/M08 A3032 RMK A01 T10691083  RH  090%=      5-min Rain = 0
KCA1 141252Z 14006KT M07/M08 A3032 RMK A01 T10691083  RH  090%=      5-min Rain = 0
KCA1 141253Z 14008KT M07/M08 A3032 RMK A01 T10691083  RH  090%=      5-min Rain = 0
KCA1 141254Z 15008KT M07/M08 A3032 RMK A01 T10691083  RH  090%=      5-min Rain = 0
KCA1 141255Z 15008KT M07/M08 A3033 RMK A01 T10691083  RH  090%=      5-min Rain = 0
KCA1 141256Z 15008KT M07/M08 A3033 RMK A01 T10691084  RH  089%=      5-min Rain = 0
KCA1 141257Z 15009KT M07/M08 A3033 RMK A01 T10691084  RH  089%=      5-min Rain = 0
KCA1 141258Z 14008KT M07/M08 A3033 RMK A01 T10691083  RH  089%=      5-min Rain = 0
KCA1 141259Z 15007KT M07/M08 A3033 RMK A01 T10691084  RH  089%=      5-min Rain = 0
KCA1 141300Z 15008KT M07/M08 A3033 RMK A01 T10691084  RH  089%=      5-min Rain = 0
KCA1 141301Z 15007KT M07/M08 A3033 RMK A01 T10691084  RH  089%=      5-min Rain = 0
KCA1 141302Z 15007KT M07/M08 A3033 RMK A01 T10691084  RH  089%=      5-min Rain = 0
KCA1 141303Z 15008KT M07/M08 A3033 RMK A01 T10691084  RH  089%=      5-min Rain = 0
KCA1 141304Z 15008KT M07/M08 A3033 RMK A01 T10691084  RH  089%=      5-min Rain = 0
KCA1 141305Z 15009KT M07/M08 A3033 RMK A01 T10681083  RH  089%=      5-min Rain = 0
KCA1 141306Z 15008KT M07/M08 A3033 RMK A01 T10681084  RH  089%=      5-min Rain = 0
KCA1 141307Z 15008KT M07/M08 A3033 RMK A01 T10681084  RH  088%=      5-min Rain = 0
KCA1 141308Z 16007KT M07/M08 A3033 RMK A01 T10681084  RH  088%=      5-min Rain = 0
KCA1 141309Z 16008KT M07/M08 A3033 RMK A01 T10681084  RH  088%=      5-min Rain = 0
KCA1 141310Z 16007KT M07/M08 A3033 RMK A01 T10681084  RH  088%=      5-min Rain = 0
KCA1 141311Z 16005KT M07/M08 A3033 RMK A01 T10681084  RH  089%=      5-min Rain = 0
KCA1 141312Z 15007KT M07/M08 A3033 RMK A01 T10681083  RH  089%=      5-min Rain = 0
KCA1 141313Z 16009KT M07/M08 A3033 RMK A01 T10681083  RH  089%=      5-min Rain = 0
KCA1 141314Z 17008KT M07/M08 A3033 RMK A01 T10681084  RH  089%=      5-min Rain = 0
KCA1 141315Z 16007KT M07/M08 A3033 RMK A01 T10681083  RH  089%=      5-min Rain = 0
KCA1 141316Z 16006KT M07/M08 A3033 RMK A01 T10681084  RH  088%=      5-min Rain = 0
KCA1 141317Z 16007KT M07/M08 A3033 RMK A01 T10681083  RH  089%=      5-min Rain = 0
KCA1 141318Z 16006KT M07/M08 A3033 RMK A01 T10671083  RH  089%=      5-min Rain = 0
KCA1 141319Z 16006KT M07/M08 A3033 RMK A01 T10671083  RH  088%=      5-min Rain = 0
KCA1 141320Z 16006KT M07/M08 A3033 RMK A01 T10671083  RH  088%=      5-min Rain = 0
KCA1 141321Z 16007KT M07/M08 A3033 RMK A01 T10671083  RH  089%=      5-min Rain = 0
KCA1 141322Z 16007KT M07/M08 A3033 RMK A01 T10671083  RH  088%=      5-min Rain = 0
KCA1 141323Z 16007KT M07/M08 A3033 RMK A01 T10671083  RH  088%=      5-min Rain = 0
KCA1 141324Z 16007KT M07/M08 A3033 RMK A01 T10671084  RH  088%=      5-min Rain = 0
KCA1 141325Z 16007KT M07/M08 A3032 RMK A01 T10671084  RH  088%=      5-min Rain = 0
KCA1 141326Z 16008KT M07/M08 A3032 RMK A01 T10671084  RH  088%=      5-min Rain = 0
KCA1 141327Z 17007KT M07/M09 A3032 RMK A01 T10671085  RH  087%=      5-min Rain = 0
KCA1 141328Z 16007KT M07/M09 A3032 RMK A01 T10671085  RH  087%=      5-min Rain = 0
KCA1 141329Z 17008KT M07/M08 A3032 RMK A01 T10661084  RH  087%=      5-min Rain = 0
KCA1 141330Z 17008KT M07/M09 A3032 RMK A01 T10671085  RH  087%=      5-min Rain = 0
KCA1 141331Z 17005KT M07/M09 A3032 RMK A01 T10671086  RH  086%=      5-min Rain = 0
KCA1 141332Z 16006KT M07/M09 A3032 RMK A01 T10661085  RH  087%=      5-min Rain = 0
KCA1 141333Z 17008KT M07/M09 A3032 RMK A01 T10661085  RH  087%=      5-min Rain = 0
KCA1 141334Z 17007KT M07/M09 A3032 RMK A01 T10671085  RH  087%=      5-min Rain = 0
KCA1 141335Z 17007KT M07/M09 A3032 RMK A01 T10661085  RH  086%=      5-min Rain = 0
KCA1 141336Z 17006KT M07/M09 A3032 RMK A01 T10661085  RH  087%=      5-min Rain = 0
KCA1 141337Z 16007KT M07/M09 A3032 RMK A01 T10661085  RH  087%=      5-min Rain = 0
KCA1 141338Z 18009KT M07/M08 A3032 RMK A01 T10661084  RH  087%=      5-min Rain = 0
KCA1 141339Z 18008KT M07/M09 A3032 RMK A01 T10661085  RH  086%=      5-min Rain = 0
KCA1 141340Z 16007KT M07/M09 A3032 RMK A01 T10661085  RH  086%=      5-min Rain = 0
KCA1 141341Z 17009KT M07/M09 A3032 RMK A01 T10661085  RH  086%=      5-min Rain = 0
KCA1 141342Z 17008KT M07/M09 A3032 RMK A01 T10651085  RH  086%=      5-min Rain = 0
KCA1 141343Z 17008KT M07/M09 A3032 RMK A01 T10661086  RH  086%=      5-min Rain = 0
KCA1 141344Z 18008KT M07/M09 A3032 RMK A01 T10661086  RH  085%=      5-min Rain = 0
KCA1 141345Z 18007KT M07/M09 A3032 RMK A01 T10661086  RH  085%=      5-min Rain = 0
KCA1 141346Z 18009KT M07/M09 A3032 RMK A01 T10651086  RH  085%=      5-min Rain = 0
KCA1 141347Z 17008KT M07/M09 A3032 RMK A01 T10651086  RH  085%=      5-min Rain = 0
KCA1 141348Z 17008KT M07/M09 A3032 RMK A01 T10651086  RH  085%=      5-min Rain = 0
KCA1 141349Z 18007KT M07/M09 A3032 RMK A01 T10651086  RH  085%=      5-min Rain = 0
KCA1 141350Z 18007KT M07/M09 A3032 RMK A01 T10651086  RH  085%=      5-min Rain = 0
KCA1 141351Z 18009KT M07/M09 A3032 RMK A01 T10651086  RH  085%=      5-min Rain = 0
KCA1 141352Z 18007KT M06/M09 A3032 RMK A01 T10641086  RH  085%=      5-min Rain = 0
KCA1 141353Z 17007KT M07/M09 A3032 RMK A01 T10651086  RH  085%=      5-min Rain = 0
KCA1 141354Z 17009KT M07/M09 A3032 RMK A01 T10651086  RH  085%=      5-min Rain = 0
KCA1 141355Z 18009KT M07/M09 A3032 RMK A01 T10651086  RH  085%=      5-min Rain = 0
KCA1 141356Z 18007KT M06/M09 A3032 RMK A01 T10641086  RH  084%=      5-min Rain = 0
KCA1 141357Z 18008KT M06/M09 A3032 RMK A01 T10641086  RH  085%=      5-min Rain = 0
KCA1 141358Z 18009KT M06/M09 A3032 RMK A01 T10641086  RH  085%=      5-min Rain = 0
KCA1 141359Z 18009KT M06/M09 A3032 RMK A01 T10641086  RH  085%=      5-min Rain = 0
KCA1 141400Z 18010KT M06/M09 A3032 RMK A01 T10641086  RH  085%=      5-min Rain = 0
KCA1 141401Z 18009KT M06/M09 A3032 RMK A01 T10641087  RH  084%=      5-min Rain = 0
KCA1 141402Z 18010KT M06/M09 A3032 RMK A01 T10641087  RH  084%=      5-min Rain = 0
KCA1 141403Z 18009KT M06/M09 A3032 RMK A01 T10641087  RH  084%=      5-min Rain = 0
KCA1 141404Z 18010KT M06/M09 A3032 RMK A01 T10641087  RH  084%=      5-min Rain = 0
KCA1 141405Z 18011KT M06/M09 A3032 RMK A01 T10641087  RH  084%=      5-min Rain = 0
KCA1 141406Z 18011KT M06/M09 A3032 RMK A01 T10641088  RH  084%=      5-min Rain = 0
KCA1 141407Z 18009KT M06/M09 A3032 RMK A01 T10641088  RH  083%=      5-min Rain = 0
KCA1 141408Z 18011KT M06/M09 A3032 RMK A01 T10641087  RH  083%=      5-min Rain = 0
KCA1 141409Z 18010KT M06/M09 A3032 RMK A01 T10631087  RH  083%=      5-min Rain = 0
KCA1 141410Z 18009KT M06/M09 A3032 RMK A01 T10641088  RH  083%=      5-min Rain = 0
KCA1 141411Z 18008KT M06/M09 A3033 RMK A01 T10641087  RH  083%=      5-min Rain = 0
KCA1 141412Z 18010KT M06/M09 A3032 RMK A01 T10631087  RH  084%=      5-min Rain = 0
KCA1 141413Z 18008KT M06/M09 A3032 RMK A01 T10631086  RH  084%=      5-min Rain = 0
KCA1 141414Z 18011KT M06/M09 A3032 RMK A01 T10631086  RH  084%=      5-min Rain = 0
KCA1 141415Z 18010KT M06/M09 A3033 RMK A01 T10631087  RH  083%=      5-min Rain = 0
KCA1 141416Z 18009KT M06/M09 A3033 RMK A01 T10631087  RH  083%=      5-min Rain = 0
KCA1 141417Z 18010KT M06/M09 A3033 RMK A01 T10631087  RH  083%=      5-min Rain = 0
KCA1 141418Z 18010KT M06/M09 A3033 RMK A01 T10631087  RH  083%=      5-min Rain = 0
KCA1 141419Z 18010KT M06/M09 A3033 RMK A01 T10631088  RH  083%=      5-min Rain = 0
KCA1 141420Z 18009KT M06/M09 A3033 RMK A01 T10621088  RH  082%=      5-min Rain = 0
KCA1 141421Z 18010KT M06/M09 A3033 RMK A01 T10621087  RH  082%=      5-min Rain = 0
KCA1 141422Z 18010KT M06/M09 A3033 RMK A01 T10621088  RH  082%=      5-min Rain = 0
KCA1 141423Z 18009KT M06/M09 A3033 RMK A01 T10621088  RH  082%=      5-min Rain = 0
KCA1 141424Z 18009KT M06/M09 A3033 RMK A01 T10621088  RH  082%=      5-min Rain = 0
KCA1 141425Z 18009KT M06/M09 A3033 RMK A01 T10621087  RH  082%=      5-min Rain = 0
KCA1 141426Z 18008KT M06/M09 A3033 RMK A01 T10611087  RH  082%=      5-min Rain = 0
KCA1 141427Z 18009KT M06/M09 A3033 RMK A01 T10621087  RH  082%=      5-min Rain = 0
KCA1 141428Z 19008KT M06/M09 A3033 RMK A01 T10621088  RH  082%=      5-min Rain = 0
KCA1 141429Z 19008KT M06/M09 A3033 RMK A01 T10611087  RH  082%=      5-min Rain = 0
KCA1 141430Z 19010KT M06/M09 A3033 RMK A01 T10611088  RH  081%=      5-min Rain = 0
KCA1 141431Z 19010KT M06/M09 A3033 RMK A01 T10611090  RH  079%=      5-min Rain = 0
KCA1 141432Z 19008KT M06/M09 A3033 RMK A01 T10611092  RH  079%=      5-min Rain = 0
KCA1 141433Z 19007KT M06/M09 A3033 RMK A01 T10601091  RH  079%=      5-min Rain = 0
KCA1 141434Z 19008KT M06/M09 A3033 RMK A01 T10601091  RH  079%=      5-min Rain = 0
KCA1 141435Z 18009KT M06/M09 A3033 RMK A01 T10601091  RH  079%=      5-min Rain = 0
KCA1 141436Z 18007KT M06/M09 A3033 RMK A01 T10601090  RH  079%=      5-min Rain = 0
KCA1 141437Z 18008KT M06/M09 A3033 RMK A01 T10601089  RH  080%=      5-min Rain = 0
KCA1 141438Z 17007KT M06/M09 A3033 RMK A01 T10601089  RH  080%=      5-min Rain = 0
KCA1 141439Z 18008KT M06/M09 A3033 RMK A01 T10591088  RH  080%=      5-min Rain = 0
KCA1 141440Z 17008KT M06/M09 A3033 RMK A01 T10581088  RH  080%=      5-min Rain = 0
KCA1 141441Z 18007KT M06/M09 A3033 RMK A01 T10591088  RH  080%=      5-min Rain = 0
KCA1 141442Z 18007KT M06/M09 A3033 RMK A01 T10591088  RH  080%=      5-min Rain = 0
KCA1 141443Z 17008KT M06/M09 A3034 RMK A01 T10581088  RH  080%=      5-min Rain = 0
KCA1 141444Z 17007KT M06/M09 A3034 RMK A01 T10581088  RH  080%=      5-min Rain = 0
KCA1 141445Z 17008KT M06/M09 A3034 RMK A01 T10581088  RH  080%=      5-min Rain = 0
KCA1 141446Z 17007KT M06/M09 A3034 RMK A01 T10581088  RH  080%=      5-min Rain = 0
KCA1 141447Z 18008KT M06/M09 A3033 RMK A01 T10581088  RH  080%=      5-min Rain = 0
KCA1 141448Z 18008KT M06/M09 A3033 RMK A01 T10581089  RH  079%=      5-min Rain = 0
KCA1 141449Z 17007KT M06/M09 A3033 RMK A01 T10581089  RH  079%=      5-min Rain = 0
KCA1 141450Z 18008KT M06/M09 A3033 RMK A01 T10571089  RH  078%=      5-min Rain = 0
KCA1 141451Z 17008KT M06/M09 A3033 RMK A01 T10571091  RH  077%=      5-min Rain = 0
KCA1 141452Z 17009KT M06/M09 A3033 RMK A01 T10571092  RH  077%=      5-min Rain = 0
KCA1 141453Z 17009KT M06/M09 A3033 RMK A01 T10571092  RH  077%=      5-min Rain = 0
KCA1 141454Z 18009KT M06/M09 A3033 RMK A01 T10571091  RH  077%=      5-min Rain = 0
KCA1 141455Z 17007KT M06/M09 A3033 RMK A01 T10571092  RH  076%=      5-min Rain = 0
KCA1 141456Z 16008KT M06/M09 A3033 RMK A01 T10571091  RH  077%=      5-min Rain = 0
KCA1 141457Z 17010KT M06/M09 A3033 RMK A01 T10561089  RH  078%=      5-min Rain = 0
KCA1 141458Z 17009KT M06/M09 A3033 RMK A01 T10561090  RH  077%=      5-min Rain = 0
KCA1 141459Z 17009KT M06/M09 A3034 RMK A01 T10571090  RH  077%=      5-min Rain = 0
KCA1 141500Z 17010KT M06/M09 A3034 RMK A01 T10561091  RH  076%=      5-min Rain = 0
KCA1 141501Z 17009KT M06/M09 A3034 RMK A01 T10561092  RH  076%=      5-min Rain = 0
KCA1 141502Z 17010KT M06/M09 A3034 RMK A01 T10561092  RH  076%=      5-min Rain = 0
KCA1 141503Z 17010KT M06/M09 A3034 RMK A01 T10561092  RH  076%=      5-min Rain = 0
KCA1 141504Z 17009KT M06/M09 A3034 RMK A01 T10561092  RH  076%=      5-min Rain = 0
KCA1 141505Z 17007KT M06/M09 A3034 RMK A01 T10561092  RH  076%=      5-min Rain = 0
KCA1 141506Z 17011KT M06/M09 A3033 RMK A01 T10551091  RH  076%=      5-min Rain = 0
KCA1 141507Z 17010KT M06/M09 A3033 RMK A01 T10551091  RH  076%=      5-min Rain = 0
KCA1 141508Z 17011KT M06/M09 A3033 RMK A01 T10551092  RH  075%=      5-min Rain = 0
KCA1 141509Z 17011KT M05/M09 A3033 RMK A01 T10541092  RH  075%=      5-min Rain = 0
KCA1 141510Z 17012KT M05/M09 A3033 RMK A01 T10541093  RH  074%=      5-min Rain = 0
KCA1 141511Z 17010KT M05/M09 A3033 RMK A01 T10541093  RH  074%=      5-min Rain = 0
KCA1 141512Z 17012KT M05/M09 A3033 RMK A01 T10541092  RH  075%=      5-min Rain = 0
KCA1 141513Z 17010KT M05/M09 A3033 RMK A01 T10541092  RH  075%=      5-min Rain = 0
KCA1 141514Z 17009KT M05/M09 A3033 RMK A01 T10541091  RH  075%=      5-min Rain = 0
KCA1 141515Z 18010KT M05/M09 A3033 RMK A01 T10531091  RH  075%=      5-min Rain = 0
KCA1 141516Z 17012KT M05/M09 A3033 RMK A01 T10531092  RH  074%=      5-min Rain = 0
KCA1 141517Z 18012KT M05/M09 A3033 RMK A01 T10531094  RH  073%=      5-min Rain = 0
KCA1 141518Z 17010KT M05/M10 A3033 RMK A01 T10531095  RH  072%=      5-min Rain = 0
KCA1 141519Z 17012KT M05/M09 A3033 RMK A01 T10521094  RH  073%=      5-min Rain = 0
KCA1 141520Z 18012KT M05/M10 A3033 RMK A01 T10521095  RH  072%=      5-min Rain = 0
KCA1 141521Z 17011KT M05/M10 A3033 RMK A01 T10521095  RH  072%=      5-min Rain = 0
KCA1 141522Z 17013KT M05/M09 A3033 RMK A01 T10511094  RH  072%=      5-min Rain = 0
KCA1 141523Z 18015KT M05/M10 A3033 RMK A01 T10511095  RH  072%=      5-min Rain = 0
KCA1 141524Z 19014KT M05/M10 A3033 RMK A01 T10511097  RH  070%=      5-min Rain = 0
KCA1 141525Z 18012KT M05/M10 A3033 RMK A01 T10511098  RH  070%=      5-min Rain = 0
KCA1 141526Z 18010KT M05/M10 A3033 RMK A01 T10501095  RH  071%=      5-min Rain = 0
KCA1 141527Z 18012KT M05/M09 A3033 RMK A01 T10491093  RH  071%=      5-min Rain = 0
KCA1 141528Z 18011KT M05/M09 A3033 RMK A01 T10481094  RH  071%=      5-min Rain = 0
KCA1 141529Z 17012KT M05/M09 A3033 RMK A01 T10491093  RH  071%=      5-min Rain = 0
KCA1 141530Z 16011KT M05/M09 A3033 RMK A01 T10481092  RH  071%=      5-min Rain = 0
KCA1 141531Z 17010KT M05/M09 A3033 RMK A01 T10491091  RH  072%=      5-min Rain = 0
KCA1 141532Z 18008KT M05/M09 A3033 RMK A01 T10481090  RH  072%=      5-min Rain = 0
KCA1 141533Z 17008KT M05/M09 A3033 RMK A01 T10471089  RH  073%=      5-min Rain = 0
KCA1 141534Z 17010KT M05/M09 A3033 RMK A01 T10451087  RH  072%=      5-min Rain = 0
KCA1 141535Z 18010KT M04/M09 A3033 RMK A01 T10441088  RH  072%=      5-min Rain = 0
KCA1 141536Z 19012KT M04/M09 A3033 RMK A01 T10441090  RH  071%=      5-min Rain = 0
KCA1 141537Z 18011KT M05/M09 A3033 RMK A01 T10461092  RH  070%=      5-min Rain = 0
KCA1 141538Z 18010KT M05/M09 A3033 RMK A01 T10461093  RH  070%=      5-min Rain = 0
KCA1 141539Z 17013KT M05/M09 A3033 RMK A01 T10451090  RH  071%=      5-min Rain = 0
KCA1 141540Z 17011KT M05/M09 A3033 RMK A01 T10451091  RH  070%=      5-min Rain = 0
KCA1 141541Z 17011KT M04/M09 A3033 RMK A01 T10441091  RH  070%=      5-min Rain = 0
KCA1 141542Z 17011KT M04/M09 A3033 RMK A01 T10441091  RH  070%=      5-min Rain = 0
KCA1 141543Z 17011KT M04/M09 A3033 RMK A01 T10431090  RH  070%=      5-min Rain = 0
KCA1 141544Z 17011KT M04/M09 A3033 RMK A01 T10421089  RH  070%=      5-min Rain = 0
KCA1 141545Z 17009KT M04/M09 A3033 RMK A01 T10421090  RH  069%=      5-min Rain = 0
KCA1 141546Z 17011KT M04/M09 A3033 RMK A01 T10421091  RH  069%=      5-min Rain = 0
KCA1 141547Z 17012KT M04/M09 A3032 RMK A01 T10421091  RH  068%=      5-min Rain = 0
KCA1 141548Z 17011KT M04/M09 A3032 RMK A01 T10431093  RH  068%=      5-min Rain = 0
KCA1 141549Z 17011KT M04/M09 A3033 RMK A01 T10431093  RH  068%=      5-min Rain = 0
KCA1 141550Z 17010KT M04/M09 A3033 RMK A01 T10431092  RH  069%=      5-min Rain = 0
KCA1 141551Z 17014KT M04/M09 A3033 RMK A01 T10421091  RH  069%=      5-min Rain = 0
KCA1 141552Z 18012KT M04/M09 A3032 RMK A01 T10431093  RH  068%=      5-min Rain = 0
KCA1 141553Z 18010KT M04/M09 A3033 RMK A01 T10431094  RH  068%=      5-min Rain = 0
KCA1 141554Z 17012KT M04/M09 A3033 RMK A01 T10431092  RH  069%=      5-min Rain = 0
KCA1 141555Z 16011KT M04/M09 A3033 RMK A01 T10421091  RH  068%=      5-min Rain = 0
KCA1 141556Z 17010KT M04/M09 A3033 RMK A01 T10411091  RH  068%=      5-min Rain = 0
KCA1 141557Z 19008KT M04/M09 A3033 RMK A01 T10401089  RH  069%=      5-min Rain = 0
KCA1 141558Z 18009KT M04/M09 A3033 RMK A01 T10391088  RH  068%=      5-min Rain = 0
KCA1 141559Z 18010KT M04/M09 A3033 RMK A01 T10381088  RH  068%=      5-min Rain = 0
KCA1 141600Z 18010KT M04/M09 A3033 RMK A01 T10371088  RH  068%=      5-min Rain = 0
KCA1 141601Z 20011KT M04/M09 A3033 RMK A01 T10361088  RH  067%=      5-min Rain = 0
KCA1 141602Z 19010KT M04/M09 A3033 RMK A01 T10361091  RH  066%=      5-min Rain = 0
KCA1 141603Z 18011KT M04/M09 A3033 RMK A01 T10361090  RH  066%=      5-min Rain = 0
KCA1 141604Z 18014KT M04/M09 A3033 RMK A01 T10361092  RH  065%=      5-min Rain = 0
KCA1 141605Z 19014KT M04/M10 A3033 RMK A01 T10381097  RH  064%=      5-min Rain = 0
KCA1 141606Z 18014KT M04/M10 A3033 RMK A01 T10391098  RH  064%=      5-min Rain = 0
KCA1 141607Z 18015KT M04/M10 A3033 RMK A01 T10391097  RH  064%=      5-min Rain = 0
KCA1 141608Z 18014KT M04/M10 A3033 RMK A01 T10391097  RH  064%=      5-min Rain = 0
KCA1 141609Z 18015KT M04/M10 A3033 RMK A01 T10401097  RH  064%=      5-min Rain = 0
KCA1 141610Z 18013KT M04/M10 A3033 RMK A01 T10391096  RH  065%=      5-min Rain = 0
KCA1 141611Z 19012KT M04/M10 A3033 RMK A01 T10381095  RH  065%=      5-min Rain = 0
KCA1 141612Z 18014KT M04/M09 A3033 RMK A01 T10371094  RH  065%=      5-min Rain = 0
KCA1 141613Z 18011KT M04/M09 A3033 RMK A01 T10371094  RH  064%=      5-min Rain = 0
KCA1 141614Z 18014KT M04/M09 A3033 RMK A01 T10351092  RH  065%=      5-min Rain = 0
KCA1 141615Z 19015KT M04/M09 A3032 RMK A01 T10351093  RH  064%=      5-min Rain = 0
KCA1 141616Z 19012G18KT M04/M09 A3032 RMK A01 T10351093  RH  064%=      5-min Rain = 0
KCA1 141617Z 18015KT M04/M09 A3032 RMK A01 T10351093  RH  064%=      5-min Rain = 0
KCA1 141618Z 18015KT M04/M09 A3032 RMK A01 T10351094  RH  064%=      5-min Rain = 0
KCA1 141619Z 18015KT M04/M09 A3032 RMK A01 T10351094  RH  064%=      5-min Rain = 0
KCA1 141620Z 19015KT M04/M09 A3032 RMK A01 T10351093  RH  064%=      5-min Rain = 0
KCA1 141621Z 19014KT M04/M09 A3032 RMK A01 T10361094  RH  064%=      5-min Rain = 0
KCA1 141622Z 18013G18KT M04/M09 A3032 RMK A01 T10361094  RH  064%=      5-min Rain = 0
KCA1 141623Z 18017KT M04/M09 A3032 RMK A01 T10361094  RH  064%=      5-min Rain = 0
KCA1 141624Z 18016KT M04/M09 A3031 RMK A01 T10361094  RH  064%=      5-min Rain = 0
KCA1 141625Z 18015KT M04/M09 A3031 RMK A01 T10351093  RH  064%=      5-min Rain = 0
KCA1 141626Z 18014KT M04/M09 A3031 RMK A01 T10351093  RH  064%=      5-min Rain = 0
KCA1 141627Z 18015KT M04/M09 A3031 RMK A01 T10351092  RH  065%=      5-min Rain = 0
KCA1 141628Z 19016KT M04/M09 A3031 RMK A01 T10351092  RH  065%=      5-min Rain = 0
KCA1 141629Z 17014KT M03/M09 A3031 RMK A01 T10341092  RH  065%=      5-min Rain = 0
KCA1 141630Z 18016KT M04/M09 A3031 RMK A01 T10351091  RH  065%=      5-min Rain = 0
KCA1 141631Z 18016KT M04/M09 A3031 RMK A01 T10351092  RH  065%=      5-min Rain = 0
KCA1 141632Z 18016KT M04/M09 A3031 RMK A01 T10361092  RH  065%=      5-min Rain = 0
KCA1 141633Z 18015KT M04/M09 A3031 RMK A01 T10361091  RH  066%=      5-min Rain = 0
KCA1 141634Z 17015KT M04/M09 A3031 RMK A01 T10351090  RH  066%=      5-min Rain = 0
KCA1 141635Z 18016KT M03/M09 A3031 RMK A01 T10341088  RH  066%=      5-min Rain = 0
KCA1 141636Z 18016KT M03/M09 A3031 RMK A01 T10341088  RH  066%=      5-min Rain = 0
KCA1 141637Z 19017KT M03/M09 A3031 RMK A01 T10341088  RH  066%=      5-min Rain = 0
KCA1 141638Z 19017KT M03/M09 A3031 RMK A01 T10331088  RH  066%=      5-min Rain = 0
KCA1 141639Z 19015KT M03/M09 A3031 RMK A01 T10331087  RH  066%=      5-min Rain = 0
KCA1 141640Z 18014KT M03/M09 A3031 RMK A01 T10331086  RH  067%=      5-min Rain = 0
KCA1 141641Z 19015KT M03/M08 A3031 RMK A01 T10321084  RH  067%=      5-min Rain = 0
KCA1 141642Z 18013KT M03/M08 A3031 RMK A01 T10311083  RH  067%=      5-min Rain = 0
KCA1 141643Z 17013KT M03/M08 A3031 RMK A01 T10291081  RH  067%=      5-min Rain = 0
KCA1 141644Z 18014KT M03/M08 A3031 RMK A01 T10281079  RH  068%=      5-min Rain = 0
KCA1 141645Z 18015KT M03/M08 A3031 RMK A01 T10271079  RH  067%=      5-min Rain = 0
KCA1 141646Z 18015KT M03/M08 A3031 RMK A01 T10281081  RH  067%=      5-min Rain = 0
KCA1 141647Z 19014G19KT M03/M08 A3031 RMK A01 T10281080  RH  067%=      5-min Rain = 0
KCA1 141648Z 19014KT M03/M08 A3031 RMK A01 T10271079  RH  068%=      5-min Rain = 0
KCA1 141649Z 19012KT M03/M08 A3031 RMK A01 T10271079  RH  067%=      5-min Rain = 0
KCA1 141650Z 18015KT M03/M08 A3031 RMK A01 T10271079  RH  068%=      5-min Rain = 0
KCA1 141651Z 18016KT M03/M08 A3031 RMK A01 T10271078  RH  068%=      5-min Rain = 0
KCA1 141652Z 19018KT M03/M08 A3031 RMK A01 T10271079  RH  067%=      5-min Rain = 0
KCA1 141653Z 18016KT M03/M08 A3031 RMK A01 T10291080  RH  068%=      5-min Rain = 0
KCA1 141654Z 18016KT M03/M08 A3031 RMK A01 T10291079  RH  068%=      5-min Rain = 0
KCA1 141655Z 19015KT M03/M08 A3031 RMK A01 T10301080  RH  068%=      5-min Rain = 0
KCA1 141656Z 19014KT M03/M08 A3031 RMK A01 T10301080  RH  068%=      5-min Rain = 0
KCA1 141657Z 19013KT M03/M08 A3031 RMK A01 T10291079  RH  069%=      5-min Rain = 0
KCA1 141658Z 19015KT M03/M08 A3031 RMK A01 T10281077  RH  069%=      5-min Rain = 0
KCA1 141659Z 19016KT M03/M08 A3031 RMK A01 T10281078  RH  068%=      5-min Rain = 0
KCA1 141700Z 19013KT M03/M08 A3031 RMK A01 T10281078  RH  068%=      5-min Rain = 0
KCA1 141701Z 19015KT M03/M08 A3031 RMK A01 T10281078  RH  069%=      5-min Rain = 0
KCA1 141702Z 19016KT M03/M08 A3031 RMK A01 T10281078  RH  068%=      5-min Rain = 0
KCA1 141703Z 18017KT M03/M08 A3031 RMK A01 T10281078  RH  068%=      5-min Rain = 0
KCA1 141704Z 17015KT M03/M08 A3031 RMK A01 T10281078  RH  068%=      5-min Rain = 0
KCA1 141705Z 17014KT M03/M08 A3031 RMK A01 T10281076  RH  069%=      5-min Rain = 0
KCA1 141706Z 18016KT M03/M08 A3031 RMK A01 T10271075  RH  069%=      5-min Rain = 0
KCA1 141707Z 18016KT M03/M08 A3031 RMK A01 T10261076  RH  069%=      5-min Rain = 0
KCA1 141708Z 18014KT M03/M08 A3031 RMK A01 T10271077  RH  069%=      5-min Rain = 0
KCA1 141709Z 18015KT M03/M08 A3031 RMK A01 T10261075  RH  069%=      5-min Rain = 0
KCA1 141710Z 18015KT M03/M08 A303 RMK A01 T10261075  RH  069%=      5-min Rain = 0
KCA1 141711Z 18014KT M03/M08 A303 RMK A01 T10261076  RH  069%=      5-min Rain = 0
KCA1 141712Z 18016KT M03/M08 A303 RMK A01 T10261075  RH  069%=      5-min Rain = 0
KCA1 141713Z 19016KT M03/M07 A303 RMK A01 T10251074  RH  069%=      5-min Rain = 0
KCA1 141714Z 19017KT M03/M07 A303 RMK A01 T10251074  RH  069%=      5-min Rain = 0
KCA1 141715Z 19014G19KT M02/M07 A303 RMK A01 T10241073  RH  069%=      5-min Rain = 0
KCA1 141716Z 20016KT M02/M07 A303 RMK A01 T10241073  RH  069%=      5-min Rain = 0
KCA1 141717Z 20016KT M02/M07 A303 RMK A01 T10241073  RH  069%=      5-min Rain = 0
KCA1 141718Z 19013KT M03/M08 A303 RMK A01 T10251075  RH  068%=      5-min Rain = 0
KCA1 141719Z 17013KT M03/M08 A303 RMK A01 T10251075  RH  069%=      5-min Rain = 0
KCA1 141720Z 18012KT M02/M07 A303 RMK A01 T10241073  RH  069%=      5-min Rain = 0
KCA1 141721Z 18015KT M02/M07 A303 RMK A01 T10221072  RH  069%=      5-min Rain = 0
KCA1 141722Z 18014KT M02/M07 A303 RMK A01 T10221073  RH  068%=      5-min Rain = 0
KCA1 141723Z 19013KT M02/M07 A303 RMK A01 T10221073  RH  068%=      5-min Rain = 0
KCA1 141724Z 20014KT M02/M07 A303 RMK A01 T10211072  RH  068%=      5-min Rain = 0
KCA1 141725Z 20016KT M02/M07 A303 RMK A01 T10221073  RH  068%=      5-min Rain = 0
KCA1 141726Z 19015KT M02/M07 A303 RMK A01 T10231073  RH  068%=      5-min Rain = 0
KCA1 141727Z 19014KT M02/M07 A303 RMK A01 T10231072  RH  069%=      5-min Rain = 0
KCA1 141728Z 19015KT M02/M07 A303 RMK A01 T10221071  RH  069%=      5-min Rain = 0
KCA1 141729Z 19015KT M02/M07 A303 RMK A01 T10221070  RH  069%=      5-min Rain = 0
KCA1 141730Z 19013G18KT M02/M07 A303 RMK A01 T10221071  RH  069%=      5-min Rain = 0
KCA1 141731Z 18017KT M02/M07 A3029 RMK A01 T10221071  RH  069%=      5-min Rain = 0
KCA1 141732Z 18015KT M02/M07 A3029 RMK A01 T10231071  RH  069%=      5-min Rain = 0
KCA1 141733Z 17017KT M02/M07 A3029 RMK A01 T10231071  RH  070%=      5-min Rain = 0
KCA1 141734Z 18016KT M02/M07 A3029 RMK A01 T10231069  RH  071%=      5-min Rain = 0
KCA1 141735Z 19017KT M02/M07 A3029 RMK A01 T10221069  RH  070%=      5-min Rain = 0
KCA1 141736Z 19017KT M02/M07 A3029 RMK A01 T10231071  RH  069%=      5-min Rain = 0
KCA1 141737Z 19017KT M02/M07 A3029 RMK A01 T10231071  RH  069%=      5-min Rain = 0
KCA1 141738Z 18017KT M02/M07 A3029 RMK A01 T10231071  RH  070%=      5-min Rain = 0
KCA1 141739Z 19015KT M02/M07 A3029 RMK A01 T10231070  RH  070%=      5-min Rain = 0
KCA1 141740Z 18016KT M02/M07 A3029 RMK A01 T10241071  RH  070%=      5-min Rain = 0
KCA1 141741Z 18015KT M02/M07 A3029 RMK A01 T10241070  RH  070%=      5-min Rain = 0
KCA1 141742Z 17015KT M02/M07 A3029 RMK A01 T10231069  RH  071%=      5-min Rain = 0
KCA1 141743Z 18014KT M02/M07 A3029 RMK A01 T10221068  RH  071%=      5-min Rain = 0
KCA1 141744Z 19015KT M02/M07 A3029 RMK A01 T10211066  RH  071%=      5-min Rain = 0
KCA1 141745Z 21014KT M02/M07 A3029 RMK A01 T10201065  RH  071%=      5-min Rain = 0
KCA1 141746Z 19013KT M02/M07 A3029 RMK A01 T10191065  RH  070%=      5-min Rain = 0
KCA1 141747Z 20014KT M02/M07 A3028 RMK A01 T10191065  RH  071%=      5-min Rain = 0
KCA1 141748Z 20016KT M02/M07 A3028 RMK A01 T10181065  RH  071%=      5-min Rain = 0
KCA1 141749Z 19013KT M02/M07 A3028 RMK A01 T10191066  RH  070%=      5-min Rain = 0
KCA1 141750Z 18016KT M02/M07 A3028 RMK A01 T10191066  RH  070%=      5-min Rain = 0
KCA1 141751Z 18017KT M02/M07 A3028 RMK A01 T10191068  RH  069%=      5-min Rain = 0
KCA1 141752Z 18016KT M02/M07 A3028 RMK A01 T10201070  RH  069%=      5-min Rain = 0
KCA1 141753Z 18014KT M02/M07 A3028 RMK A01 T10211070  RH  069%=      5-min Rain = 0
KCA1 141754Z 19013KT M02/M07 A3028 RMK A01 T10201068  RH  070%=      5-min Rain = 0
KCA1 141755Z 19014KT M02/M07 A3028 RMK A01 T10191068  RH  069%=      5-min Rain = 0
KCA1 141756Z 18014KT M02/M07 A3028 RMK A01 T10191069  RH  069%=      5-min Rain = 0
KCA1 141757Z 17014KT M02/M07 A3028 RMK A01 T10191069  RH  068%=      5-min Rain = 0
KCA1 141758Z 18012KT M02/M07 A3028 RMK A01 T10191069  RH  069%=      5-min Rain = 0
KCA1 141759Z 17014KT M02/M07 A3028 RMK A01 T10181068  RH  069%=      5-min Rain = 0
KCA1 141800Z 18012KT M02/M07 A3028 RMK A01 T10181068  RH  069%=      5-min Rain = 0
KCA1 141801Z 18012G19KT M02/M07 A3028 RMK A01 T10161066  RH  069%=      5-min Rain = 0
KCA1 141802Z 19017KT M02/M07 A3028 RMK A01 T10151066  RH  068%=      5-min Rain = 0
KCA1 141803Z 18014KT M02/M07 A3028 RMK A01 T10171069  RH  068%=      5-min Rain = 0
KCA1 141804Z 18012KT M02/M07 A3028 RMK A01 T10181070  RH  068%=      5-min Rain = 0
KCA1 141805Z 19013KT M02/M07 A3027 RMK A01 T10191070  RH  068%=      5-min Rain = 0
KCA1 141806Z 18014KT M02/M07 A3027 RMK A01 T10191067  RH  070%=      5-min Rain = 0
KCA1 141807Z 17015KT M02/M07 A3027 RMK A01 T10171065  RH  070%=      5-min Rain = 0
KCA1 141808Z 17014G19KT M02/M07 A3027 RMK A01 T10171065  RH  070%=      5-min Rain = 0
KCA1 141809Z 19014KT M02/M06 A3027 RMK A01 T10171064  RH  070%=      5-min Rain = 0
KCA1 141810Z 18013KT M02/M07 A3027 RMK A01 T10171066  RH  069%=      5-min Rain = 0
KCA1 141811Z 17016KT M02/M07 A3027 RMK A01 T10171065  RH  070%=      5-min Rain = 0
KCA1 141812Z 19016KT M02/M07 A3027 RMK A01 T10181067  RH  069%=      5-min Rain = 0
KCA1 141813Z 18015KT M02/M07 A3027 RMK A01 T10191066  RH  070%=      5-min Rain = 0
KCA1 141814Z 17017KT M02/M07 A3027 RMK A01 T10181065  RH  070%=      5-min Rain = 0
KCA1 141815Z 17018KT M02/M07 A3026 RMK A01 T10181065  RH  070%=      5-min Rain = 0
KCA1 141816Z 18017KT M02/M07 A3026 RMK A01 T10191066  RH  070%=      5-min Rain = 0
KCA1 141817Z 18012KT M02/M07 A3026 RMK A01 T10201067  RH  070%=      5-min Rain = 0
KCA1 141818Z 17013KT M02/M07 A3026 RMK A01 T10201065  RH  072%=      5-min Rain = 0
KCA1 141819Z 18013KT M02/M06 A3026 RMK A01 T10191063  RH  072%=      5-min Rain = 0
KCA1 141820Z 18016KT M02/M06 A3026 RMK A01 T10181062  RH  072%=      5-min Rain = 0
KCA1 141821Z 18014G19KT M02/M06 A3026 RMK A01 T10181064  RH  071%=      5-min Rain = 0
KCA1 141822Z 18014KT M02/M06 A3026 RMK A01 T10181062  RH  072%=      5-min Rain = 0
KCA1 141823Z 19013KT M02/M06 A3026 RMK A01 T10171062  RH  071%=      5-min Rain = 0
KCA1 141824Z 20013KT M02/M06 A3026 RMK A01 T10161061  RH  071%=      5-min Rain = 0
KCA1 141825Z 19013KT M02/M06 A3026 RMK A01 T10151060  RH  071%=      5-min Rain = 0
KCA1 141826Z 20015KT M01/M06 A3026 RMK A01 T10141059  RH  071%=      5-min Rain = 0
KCA1 141827Z 20017KT M01/M06 A3026 RMK A01 T10141061  RH  070%=      5-min Rain = 0
KCA1 141828Z 19013KT M02/M06 A3026 RMK A01 T10151063  RH  070%=      5-min Rain = 0
KCA1 141829Z 19012KT M02/M06 A3026 RMK A01 T10151062  RH  071%=      5-min Rain = 0
KCA1 141830Z 18012G17KT M01/M06 A3025 RMK A01 T10131060  RH  071%=      5-min Rain = 0
KCA1 141831Z 18014KT M01/M06 A3025 RMK A01 T10111059  RH  070%=      5-min Rain = 0
KCA1 141832Z 19014KT M01/M06 A3025 RMK A01 T10101059  RH  070%=      5-min Rain = 0
KCA1 141833Z 19015G20KT M01/M06 A3025 RMK A01 T10111060  RH  069%=      5-min Rain = 0
KCA1 141834Z 19017KT M01/M06 A3025 RMK A01 T10121061  RH  069%=      5-min Rain = 0
KCA1 141835Z 18016KT M01/M06 A3025 RMK A01 T10131062  RH  069%=      5-min Rain = 0
KCA1 141836Z 18011KT M01/M06 A3025 RMK A01 T10131060  RH  070%=      5-min Rain = 0
KCA1 141837Z 19014KT M01/M06 A3025 RMK A01 T10101057  RH  071%=      5-min Rain = 0
KCA1 141838Z 18014KT M01/M06 A3025 RMK A01 T10091058  RH  070%=      5-min Rain = 0
KCA1 141839Z 19013KT M01/M06 A3024 RMK A01 T10101058  RH  070%=      5-min Rain = 0
KCA1 141840Z 18015KT M01/M06 A3024 RMK A01 T10091057  RH  070%=      5-min Rain = 0
KCA1 141841Z 19013KT M01/M06 A3024 RMK A01 T10091059  RH  069%=      5-min Rain = 0
KCA1 141842Z 18013KT M01/M06 A3024 RMK A01 T10081057  RH  069%=      5-min Rain = 0
KCA1 141843Z 17014KT M01/M06 A3024 RMK A01 T10071056  RH  069%=      5-min Rain = 0
KCA1 141844Z 18014KT M01/M06 A3024 RMK A01 T10061056  RH  069%=      5-min Rain = 0
KCA1 141845Z 17015KT M01/M06 A3024 RMK A01 T10061056  RH  069%=      5-min Rain = 0
KCA1 141846Z 18017KT M01/M06 A3023 RMK A01 T10071058  RH  068%=      5-min Rain = 0.01
KCA1 141847Z 17017KT M01/M06 A3023 RMK A01 T10081058  RH  069%=      5-min Rain = 0
KCA1 141848Z 17013KT M01/M06 A3023 RMK A01 T10081058  RH  069%=      5-min Rain = 0
KCA1 141849Z 17015KT M01/M05 A3023 RMK A01 T10051054  RH  070%=      5-min Rain = 0
KCA1 141850Z 18015G20KT M00/M05 A3023 RMK A01 T10031053  RH  069%=      5-min Rain = 0
KCA1 141851Z 18016KT M00/M05 A3023 RMK A01 T10021052  RH  069%=      5-min Rain = 0
KCA1 141852Z 18014KT M00/M06 A3023 RMK A01 T10031055  RH  068%=      5-min Rain = 0
KCA1 141853Z 17014KT M00/M05 A3023 RMK A01 T10031054  RH  069%=      5-min Rain = 0
KCA1 141854Z 18017KT M00/M05 A3023 RMK A01 T10021053  RH  069%=      5-min Rain = 0
KCA1 141855Z 17014KT M01/M06 A3023 RMK A01 T10051057  RH  068%=      5-min Rain = 0
KCA1 141856Z 17013KT M01/M05 A3023 RMK A01 T10051053  RH  070%=      5-min Rain = 0
KCA1 141857Z 17016KT M00/M05 A3023 RMK A01 T10041054  RH  069%=      5-min Rain = 0
KCA1 141858Z 17016KT M01/M06 A3023 RMK A01 T10061057  RH  069%=      5-min Rain = 0
KCA1 141859Z 17015KT M01/M05 A3022 RMK A01 T10051052  RH  070%=      5-min Rain = 0
KCA1 141900Z 18015KT 00/05 A3023 RMK A01 T00-00-47  RH  071%=      5-min Rain = 0
KCA1 141901Z 17014KT 00/05 A3023 RMK A01 T00-00-51  RH  069%=      5-min Rain = 0
KCA1 141902Z 17013KT M00/M06 A3022 RMK A01 T10021055  RH  068%=      5-min Rain = 0.02
KCA1 141903Z 17017KT M00/M05 A3022 RMK A01 T10041054  RH  069%=      5-min Rain = 0
KCA1 141904Z 18016KT 00/05 A3022 RMK A01 T00-00-47  RH  071%=      5-min Rain = 0
KCA1 141905Z 17015KT 00/M05 A3022 RMK A01 T00031046  RH  070%=      5-min Rain = 0
KCA1 141906Z 17012KT 00/M05 A3022 RMK A01 T00021047  RH  070%=      5-min Rain = 0
KCA1 141907Z 17016KT 00/M05 A3022 RMK A01 T00011047  RH  070%=      5-min Rain = 0
KCA1 141908Z 17018KT M00/M05 A3022 RMK A01 T10011051  RH  069%=      5-min Rain = 0
KCA1 141909Z 18015KT M00/M05 A3022 RMK A01 T10041050  RH  071%=      5-min Rain = 0
KCA1 141910Z 18018G24KT M00/M05 A3021 RMK A01 T10031048  RH  072%=      5-min Rain = 0
KCA1 141911Z 17017KT 00/05 A3021 RMK A01 T00000-45  RH  071%=      5-min Rain = 0
KCA1 141912Z 18015KT 00/M04 A3021 RMK A01 T00021043  RH  072%=      5-min Rain = 0
KCA1 141913Z 19016KT 00/M05 A3021 RMK A01 T00021045  RH  070%=      5-min Rain = 0
KCA1 141914Z 19015KT 00/05 A3021 RMK A01 T00000-48  RH  070%=      5-min Rain = 0
KCA1 141915Z 18015G20KT 00/05 A3021 RMK A01 T00-00-47  RH  071%=      5-min Rain = 0
KCA1 141916Z 18019KT 00/05 A3021 RMK A01 T00000-46  RH  071%=      5-min Rain = 0
KCA1 141917Z 18018KT M00/M05 A3021 RMK A01 T10011047  RH  071%=      5-min Rain = 0
KCA1 141918Z 17017KT M00/M05 A3021 RMK A01 T10021048  RH  071%=      5-min Rain = 0
KCA1 141919Z 18014KT M00/M05 A3021 RMK A01 T10031049  RH  071%=      5-min Rain = 0
KCA1 141920Z 18015G21KT 00/05 A3021 RMK A01 T00-00-45  RH  072%=      5-min Rain = 0
KCA1 141921Z 19016KT 00/M04 A3021 RMK A01 T00041041  RH  072%=      5-min Rain = 0
KCA1 141922Z 19013KT 01/M04 A3021 RMK A01 T00061040  RH  071%=      5-min Rain = 0
KCA1 141923Z 19015KT 01/M03 A3021 RMK A01 T00111034  RH  072%=      5-min Rain = 0
KCA1 141924Z 19013KT 01/M04 A3021 RMK A01 T00131037  RH  069%=      5-min Rain = 0
KCA1 141925Z 19013KT 01/M04 A302 RMK A01 T00131038  RH  069%=      5-min Rain = 0
KCA1 141926Z 17015KT 02/M04 A302 RMK A01 T00151036  RH  069%=      5-min Rain = 0.01
KCA1 141927Z 19012KT 02/M03 A302 RMK A01 T00171033  RH  069%=      5-min Rain = 0
KCA1 141928Z 19010KT 02/M03 A302 RMK A01 T00191033  RH  068%=      5-min Rain = 0
KCA1 141929Z 17016KT 02/M03 A302 RMK A01 T00191033  RH  068%=      5-min Rain = 0
KCA1 141930Z 17016KT 02/M04 A302 RMK A01 T00171037  RH  067%=      5-min Rain = 0
KCA1 141931Z 18014KT 02/M04 A302 RMK A01 T00171035  RH  068%=      5-min Rain = 0
KCA1 141932Z 17015KT 02/M04 A302 RMK A01 T00171035  RH  068%=      5-min Rain = 0
KCA1 141933Z 17016KT 02/M04 A302 RMK A01 T00171036  RH  068%=      5-min Rain = 0
KCA1 141934Z 18011KT 02/M03 A302 RMK A01 T00181034  RH  068%=      5-min Rain = 0
KCA1 141935Z 17013KT 02/M03 A3019 RMK A01 T00191033  RH  069%=      5-min Rain = 0
KCA1 141936Z 18016KT 02/M03 A3019 RMK A01 T00191034  RH  068%=      5-min Rain = 0
KCA1 141937Z 19017KT 02/M03 A3019 RMK A01 T00191034  RH  068%=      5-min Rain = 0
KCA1 141938Z 19014KT 02/M04 A3019 RMK A01 T00161039  RH  067%=      5-min Rain = 0
KCA1 141939Z 17014KT 01/M04 A3019 RMK A01 T00131039  RH  068%=      5-min Rain = 0
KCA1 141940Z 17016G22KT 02/M03 A3019 RMK A01 T00161033  RH  070%=      5-min Rain = 0
KCA1 141941Z 18017G22KT 02/M03 A3019 RMK A01 T00191032  RH  069%=      5-min Rain = 0
KCA1 141942Z 18016G21KT 02/M03 A3019 RMK A01 T00201033  RH  068%=      5-min Rain = 0
KCA1 141943Z 17019G24KT 02/M04 A3018 RMK A01 T00191035  RH  067%=      5-min Rain = 0
KCA1 141944Z 17019KT 02/M04 A3018 RMK A01 T00181037  RH  067%=      5-min Rain = 0
KCA1 141945Z 17020G25KT 02/M04 A3018 RMK A01 T00171038  RH  067%=      5-min Rain = 0
KCA1 141946Z 18018G23KT 02/M04 A3018 RMK A01 T00161036  RH  068%=      5-min Rain = 0
KCA1 141947Z 18015G20KT 02/M03 A3018 RMK A01 T00181034  RH  069%=      5-min Rain = 0
KCA1 141948Z 18015G20KT 02/M03 A3018 RMK A01 T00191033  RH  069%=      5-min Rain = 0
KCA1 141949Z 18017KT 02/M03 A3018 RMK A01 T00211031  RH  068%=      5-min Rain = 0
KCA1 141950Z 18016KT 02/M03 A3018 RMK A01 T00221032  RH  067%=      5-min Rain = 0
KCA1 141951Z 17018KT 02/M03 A3018 RMK A01 T00221033  RH  067%=      5-min Rain = 0
KCA1 141952Z 17018KT 02/M04 A3018 RMK A01 T00211036  RH  066%=      5-min Rain = 0
KCA1 141953Z 17016KT 02/M04 A3018 RMK A01 T00201036  RH  066%=      5-min Rain = 0
KCA1 141954Z 18015KT 02/M04 A3018 RMK A01 T00171039  RH  066%=      5-min Rain = 0
KCA1 141955Z 18015G20KT 01/M04 A3017 RMK A01 T00141039  RH  067%=      5-min Rain = 0
KCA1 141956Z 18016KT 02/M04 A3017 RMK A01 T00151037  RH  069%=      5-min Rain = 0
KCA1 141957Z 18020KT 02/M04 A3017 RMK A01 T00151037  RH  068%=      5-min Rain = 0
KCA1 141958Z 18019G24KT 02/M04 A3017 RMK A01 T00171035  RH  068%=      5-min Rain = 0
KCA1 141959Z 18016KT 02/M03 A3017 RMK A01 T00191033  RH  069%=      5-min Rain = 0
KCA1 142000Z 18015KT 02/M04 A3017 RMK A01 T00191035  RH  067%=      5-min Rain = 0
KCA1 142001Z 19017KT 02/M03 A3017 RMK A01 T00191034  RH  068%=      5-min Rain = 0
KCA1 142002Z 18018G23KT 02/M03 A3017 RMK A01 T00211032  RH  068%=      5-min Rain = 0
KCA1 142003Z 19021KT 02/M03 A3017 RMK A01 T00221034  RH  067%=      5-min Rain = 0
KCA1 142004Z 19017KT 02/M04 A3017 RMK A01 T00191038  RH  066%=      5-min Rain = 0
KCA1 142005Z 18018KT 02/M04 A3017 RMK A01 T00181037  RH  067%=      5-min Rain = 0
KCA1 142006Z 18017KT 02/M04 A3017 RMK A01 T00151040  RH  067%=      5-min Rain = 0
KCA1 142007Z 18014KT 01/M04 A3017 RMK A01 T00121041  RH  068%=      5-min Rain = 0
KCA1 142008Z 19017KT 01/M04 A3016 RMK A01 T00121038  RH  069%=      5-min Rain = 0
KCA1 142009Z 19019KT 02/M03 A3016 RMK A01 T00171032  RH  070%=      5-min Rain = 0
KCA1 142010Z 18017KT 02/M04 A3017 RMK A01 T00191035  RH  068%=      5-min Rain = 0
KCA1 142011Z 20013KT 02/M04 A3016 RMK A01 T00181036  RH  068%=      5-min Rain = 0
KCA1 142012Z 18012G17KT 02/M03 A3016 RMK A01 T00221030  RH  068%=      5-min Rain = 0
KCA1 142013Z 17013G19KT 03/M03 A3016 RMK A01 T00271028  RH  067%=      5-min Rain = 0
KCA1 142014Z 19017KT 03/M03 A3016 RMK A01 T00301026  RH  067%=      5-min Rain = 0
KCA1 142015Z 20017KT 03/M03 A3016 RMK A01 T00311028  RH  065%=      5-min Rain = 0
KCA1 142016Z 20018KT 03/M03 A3016 RMK A01 T00291034  RH  063%=      5-min Rain = 0
KCA1 142017Z 20015KT 03/M04 A3016 RMK A01 T00251036  RH  064%=      5-min Rain = 0
KCA1 142018Z 18018KT 03/M03 A3016 RMK A01 T00251033  RH  065%=      5-min Rain = 0
KCA1 142019Z 16017KT 03/M03 A3016 RMK A01 T00261034  RH  065%=      5-min Rain = 0
KCA1 142020Z 17015G21KT 02/M04 A3016 RMK A01 T00241035  RH  065%=      5-min Rain = 0
KCA1 142021Z 17018KT 02/M03 A3016 RMK A01 T00231034  RH  066%=      5-min Rain = 0
KCA1 142022Z 17018KT 02/M03 A3016 RMK A01 T00231034  RH  066%=      5-min Rain = 0
KCA1 142023Z 16016KT 03/M03 A3016 RMK A01 T00251032  RH  066%=      5-min Rain = 0
KCA1 142024Z 16016KT 03/M03 A3016 RMK A01 T00271031  RH  066%=      5-min Rain = 0
KCA1 142025Z 16016KT 03/M03 A3016 RMK A01 T00281031  RH  065%=      5-min Rain = 0
KCA1 142026Z 17014G19KT 03/M03 A3015 RMK A01 T00281031  RH  065%=      5-min Rain = 0
KCA1 142027Z 18017KT 03/M03 A3015 RMK A01 T00281030  RH  065%=      5-min Rain = 0
KCA1 142028Z 19017KT 03/M03 A3015 RMK A01 T00291031  RH  065%=      5-min Rain = 0
KCA1 142029Z 17015G20KT 03/M04 A3015 RMK A01 T00281035  RH  064%=      5-min Rain = 0
KCA1 142030Z 18013KT 03/M03 A3015 RMK A01 T00271032  RH  065%=      5-min Rain = 0
KCA1 142031Z 19013KT 03/M03 A3015 RMK A01 T00301030  RH  065%=      5-min Rain = 0
KCA1 142032Z 18013KT 03/M03 A3015 RMK A01 T00331027  RH  065%=      5-min Rain = 0
KCA1 142033Z 17015KT 04/M03 A3015 RMK A01 T00361025  RH  064%=      5-min Rain = 0
KCA1 142034Z 17014KT 04/M03 A3015 RMK A01 T00361030  RH  062%=      5-min Rain = 0
KCA1 142035Z 18016KT 03/M03 A3015 RMK A01 T00341029  RH  063%=      5-min Rain = 0
KCA1 142036Z 18014KT 03/M03 A3015 RMK A01 T00341030  RH  063%=      5-min Rain = 0
KCA1 142037Z 17015KT 03/M03 A3015 RMK A01 T00331029  RH  064%=      5-min Rain = 0
KCA1 142038Z 17015KT 03/M03 A3015 RMK A01 T00331030  RH  063%=      5-min Rain = 0
KCA1 142039Z 17015KT 03/M03 A3015 RMK A01 T00341028  RH  064%=      5-min Rain = 0
KCA1 142040Z 18014KT 04/M03 A3015 RMK A01 T00351029  RH  063%=      5-min Rain = 0
KCA1 142041Z 18014KT 04/M03 A3015 RMK A01 T00351029  RH  063%=      5-min Rain = 0
KCA1 142042Z 19013KT 04/M03 A3014 RMK A01 T00351029  RH  063%=      5-min Rain = 0
KCA1 142043Z 18016G21KT 04/M03 A3014 RMK A01 T00361027  RH  063%=      5-min Rain = 0
KCA1 142044Z 18015KT 04/M03 A3014 RMK A01 T00381027  RH  063%=      5-min Rain = 0
KCA1 142045Z 17010KT 04/M03 A3014 RMK A01 T00391026  RH  063%=      5-min Rain = 0
KCA1 142046Z 17013KT 04/M02 A3014 RMK A01 T00411022  RH  063%=      5-min Rain = 0
KCA1 142047Z 18017G22KT 04/M02 A3014 RMK A01 T00431024  RH  062%=      5-min Rain = 0
KCA1 142048Z 18014KT 04/M03 A3014 RMK A01 T00421027  RH  061%=      5-min Rain = 0
KCA1 142049Z 17015KT 04/M03 A3014 RMK A01 T00411026  RH  062%=      5-min Rain = 0
KCA1 142050Z 17015KT 04/M03 A3014 RMK A01 T00391029  RH  061%=      5-min Rain = 0
KCA1 142051Z 17015KT 04/M03 A3014 RMK A01 T00371029  RH  062%=      5-min Rain = 0
KCA1 142052Z 17014G20KT 04/M03 A3014 RMK A01 T00381026  RH  063%=      5-min Rain = 0
KCA1 142053Z 17016KT 04/M03 A3014 RMK A01 T00401026  RH  062%=      5-min Rain = 0
KCA1 142054Z 17016KT 04/M03 A3014 RMK A01 T00381030  RH  061%=      5-min Rain = 0
KCA1 142055Z 18017KT 04/M03 A3014 RMK A01 T00371029  RH  062%=      5-min Rain = 0
KCA1 142056Z 18017KT 04/M03 A3014 RMK A01 T00371030  RH  062%=      5-min Rain = 0
KCA1 142057Z 18018KT 04/M03 A3014 RMK A01 T00361030  RH  062%=      5-min Rain = 0
KCA1 142058Z 19014G19KT 04/M03 A3014 RMK A01 T00381026  RH  063%=      5-min Rain = 0
KCA1 142059Z 19014KT 04/M03 A3014 RMK A01 T00391026  RH  062%=      5-min Rain = 0
KCA1 142100Z 18017G23KT 04/M03 A3014 RMK A01 T00391028  RH  061%=      5-min Rain = 0
KCA1 142101Z 18018KT 04/M03 A3014 RMK A01 T00371030  RH  061%=      5-min Rain = 0
KCA1 142102Z 18017KT 04/M03 A3014 RMK A01 T00371030  RH  062%=      5-min Rain = 0
KCA1 142103Z 18019KT 04/M03 A3014 RMK A01 T00361030  RH  062%=      5-min Rain = 0
KCA1 142104Z 18016G22KT 04/M03 A3014 RMK A01 T00351031  RH  062%=      5-min Rain = 0
KCA1 142105Z 17017KT 04/M03 A3014 RMK A01 T00351028  RH  063%=      5-min Rain = 0
KCA1 142106Z 16018KT 04/M03 A3013 RMK A01 T00361029  RH  062%=      5-min Rain = 0
KCA1 142107Z 16016KT 04/M03 A3014 RMK A01 T00361030  RH  062%=      5-min Rain = 0
KCA1 142108Z 17014G19KT 04/M03 A3014 RMK A01 T00361029  RH  063%=      5-min Rain = 0
KCA1 142109Z 18020KT 04/M03 A3013 RMK A01 T00371028  RH  063%=      5-min Rain = 0
KCA1 142110Z 19018KT 04/M03 A3013 RMK A01 T00361030  RH  062%=      5-min Rain = 0
KCA1 142111Z 18020KT 04/M03 A3014 RMK A01 T00361030  RH  062%=      5-min Rain = 0
KCA1 142112Z 18019G24KT 04/M03 A3014 RMK A01 T00361030  RH  062%=      5-min Rain = 0
KCA1 142113Z 18016KT 04/M03 A3014 RMK A01 T00351030  RH  062%=      5-min Rain = 0
KCA1 142114Z 18019KT 04/M03 A3014 RMK A01 T00371026  RH  063%=      5-min Rain = 0
KCA1 142115Z 17016G23KT 04/M03 A3013 RMK A01 T00391028  RH  062%=      5-min Rain = 0
KCA1 142116Z 17020G25KT 04/M03 A3013 RMK A01 T00381029  RH  062%=      5-min Rain = 0
KCA1 142117Z 17019KT 04/M03 A3013 RMK A01 T00381029  RH  062%=      5-min Rain = 0
KCA1 142118Z 17022KT 04/M03 A3013 RMK A01 T00381029  RH  061%=      5-min Rain = 0
KCA1 142119Z 18022KT 04/M03 A3013 RMK A01 T00371030  RH  061%=      5-min Rain = 0
KCA1 142120Z 18021KT 04/M03 A3013 RMK A01 T00361030  RH  062%=      5-min Rain = 0
KCA1 142121Z 18019KT 04/M03 A3013 RMK A01 T00361031  RH  062%=      5-min Rain = 0
KCA1 142122Z 19016KT 04/M03 A3013 RMK A01 T00351030  RH  062%=      5-min Rain = 0
KCA1 142123Z 18020KT 04/M03 A3013 RMK A01 T00361029  RH  062%=      5-min Rain = 0
KCA1 142124Z 17019G26KT 04/M03 A3013 RMK A01 T00371030  RH  062%=      5-min Rain = 0
KCA1 142125Z 17020KT 04/M03 A3013 RMK A01 T00371030  RH  062%=      5-min Rain = 0
KCA1 142126Z 17020KT 04/M03 A3013 RMK A01 T00361031  RH  061%=      5-min Rain = 0
KCA1 142127Z 17018KT 04/M03 A3013 RMK A01 T00371029  RH  062%=      5-min Rain = 0
KCA1 142128Z 18018KT 04/M03 A3012 RMK A01 T00381028  RH  062%=      5-min Rain = 0
KCA1 142129Z 18017KT 04/M03 A3012 RMK A01 T00391028  RH  062%=      5-min Rain = 0
KCA1 142130Z 18017KT 04/M03 A3012 RMK A01 T00391029  RH  061%=      5-min Rain = 0
KCA1 142131Z 19014G19KT 04/M03 A3012 RMK A01 T00391027  RH  062%=      5-min Rain = 0
KCA1 142132Z 18015KT 04/M02 A3012 RMK A01 T00431023  RH  062%=      5-min Rain = 0
KCA1 142133Z 17021KT 04/M03 A3012 RMK A01 T00441026  RH  060%=      5-min Rain = 0
KCA1 142134Z 17018KT 04/M03 A3012 RMK A01 T00401031  RH  059%=      5-min Rain = 0
KCA1 142135Z 18016G21KT 04/M03 A3012 RMK A01 T00391030  RH  061%=      5-min Rain = 0
KCA1 142136Z 18018KT 04/M03 A3012 RMK A01 T00391029  RH  061%=      5-min Rain = 0
KCA1 142137Z 19018G23KT 04/M03 A3012 RMK A01 T00401029  RH  061%=      5-min Rain = 0
KCA1 142138Z 19019KT 04/M03 A3012 RMK A01 T00391030  RH  061%=      5-min Rain = 0
KCA1 142139Z 19017KT 04/M03 A3012 RMK A01 T00381031  RH  061%=      5-min Rain = 0
KCA1 142140Z 17017KT 04/M03 A3012 RMK A01 T00371031  RH  061%=      5-min Rain = 0
KCA1 142141Z 17018KT 04/M03 A3012 RMK A01 T00381029  RH  062%=      5-min Rain = 0
KCA1 142142Z 18012KT 04/M03 A3012 RMK A01 T00381029  RH  061%=      5-min Rain = 0
KCA1 142143Z 17015KT 04/M03 A3012 RMK A01 T00411026  RH  062%=      5-min Rain = 0
KCA1 142144Z 18013KT 04/M03 A3012 RMK A01 T00431026  RH  061%=      5-min Rain = 0
KCA1 142145Z 18016KT 04/M03 A3012 RMK A01 T00441026  RH  061%=      5-min Rain = 0
KCA1 142146Z 18016KT 04/M03 A3012 RMK A01 T00441027  RH  060%=      5-min Rain = 0
KCA1 142147Z 18016KT 04/M03 A3012 RMK A01 T00431029  RH  059%=      5-min Rain = 0
KCA1 142148Z 17015KT 04/M03 A3011 RMK A01 T00431028  RH  060%=      5-min Rain = 0
KCA1 142149Z 17018KT 04/M03 A3011 RMK A01 T00421030  RH  059%=      5-min Rain = 0
KCA1 142150Z 17017KT 04/M03 A3011 RMK A01 T00391033  RH  060%=      5-min Rain = 0
KCA1 142151Z 18017KT 04/M03 A3011 RMK A01 T00381032  RH  060%=      5-min Rain = 0
KCA1 142152Z 18014KT 04/M03 A3011 RMK A01 T00381030  RH  061%=      5-min Rain = 0
KCA1 142153Z 19015KT 04/M03 A3011 RMK A01 T00411026  RH  061%=      5-min Rain = 0
KCA1 142154Z 19014KT 04/M03 A3011 RMK A01 T00421028  RH  060%=      5-min Rain = 0
KCA1 142155Z 18016KT 04/M03 A3011 RMK A01 T00421029  RH  060%=      5-min Rain = 0
KCA1 142156Z 18014KT 04/M03 A3011 RMK A01 T00421028  RH  060%=      5-min Rain = 0
KCA1 142157Z 18018G23KT 04/M03 A3011 RMK A01 T00441026  RH  060%=      5-min Rain = 0
KCA1 142158Z 20016G21KT 04/M03 A3011 RMK A01 T00441028  RH  059%=      5-min Rain = 0
KCA1 142159Z 18014KT 04/M03 A3011 RMK A01 T00431028  RH  060%=      5-min Rain = 0
KCA1 142200Z 19014KT 04/M03 A3011 RMK A01 T00431027  RH  060%=      5-min Rain = 0
KCA1 142201Z 19016KT 04/M03 A3011 RMK A01 T00441028  RH  059%=      5-min Rain = 0
KCA1 142202Z 18016G21KT 04/M03 A3011 RMK A01 T00421028  RH  060%=      5-min Rain = 0
KCA1 142203Z 17019G25KT 04/M03 A3011 RMK A01 T00431028  RH  060%=      5-min Rain = 0
KCA1 142204Z 19018G24KT 04/M03 A3011 RMK A01 T00421028  RH  060%=      5-min Rain = 0
KCA1 142205Z 18017KT 04/M03 A3011 RMK A01 T00401030  RH  060%=      5-min Rain = 0
KCA1 142206Z 18018KT 04/M03 A3011 RMK A01 T00391030  RH  061%=      5-min Rain = 0
KCA1 142207Z 17014KT 04/M03 A3011 RMK A01 T00381029  RH  062%=      5-min Rain = 0
KCA1 142208Z 18016G23KT 04/M03 A3011 RMK A01 T00391026  RH  063%=      5-min Rain = 0
KCA1 142209Z 19018G24KT 04/M03 A3011 RMK A01 T00391028  RH  062%=      5-min Rain = 0
KCA1 142210Z 18017KT 04/M03 A3011 RMK A01 T00371029  RH  062%=      5-min Rain = 0
KCA1 142211Z 18016KT 04/M03 A3011 RMK A01 T00361029  RH  063%=      5-min Rain = 0
KCA1 142212Z 18012KT 03/M03 A3011 RMK A01 T00341031  RH  063%=      5-min Rain = 0
KCA1 142213Z 18015KT 03/M03 A3011 RMK A01 T00321031  RH  063%=      5-min Rain = 0
KCA1 142214Z 18017G24KT 03/M03 A3011 RMK A01 T00301031  RH  064%=      5-min Rain = 0
KCA1 142215Z 18015KT 03/M03 A3011 RMK A01 T00291031  RH  065%=      5-min Rain = 0
KCA1 142216Z 18014G19KT 03/M03 A3011 RMK A01 T00281031  RH  065%=      5-min Rain = 0
KCA1 142217Z 18014KT 03/M03 A3011 RMK A01 T00281030  RH  065%=      5-min Rain = 0
KCA1 142218Z 18018G23KT 03/M03 A3011 RMK A01 T00271030  RH  066%=      5-min Rain = 0
KCA1 142219Z 18019KT 03/M03 A301 RMK A01 T00261032  RH  066%=      5-min Rain = 0
KCA1 142220Z 18019KT 03/M03 A301 RMK A01 T00261031  RH  066%=      5-min Rain = 0
KCA1 142221Z 18016KT 03/M03 A301 RMK A01 T00261030  RH  066%=      5-min Rain = 0
KCA1 142222Z 18015KT 03/M03 A301 RMK A01 T00271029  RH  066%=      5-min Rain = 0
KCA1 142223Z 18015KT 03/M03 A301 RMK A01 T00291028  RH  066%=      5-min Rain = 0
KCA1 142224Z 17016KT 03/M03 A301 RMK A01 T00291028  RH  066%=      5-min Rain = 0
KCA1 142225Z 17015KT 03/M03 A301 RMK A01 T00291028  RH  066%=      5-min Rain = 0
KCA1 142226Z 19013KT 03/M03 A301 RMK A01 T00291028  RH  066%=      5-min Rain = 0
KCA1 142227Z 17017G22KT 03/M03 A301 RMK A01 T00291027  RH  066%=      5-min Rain = 0
KCA1 142228Z 18015KT 03/M03 A301 RMK A01 T00301027  RH  066%=      5-min Rain = 0
KCA1 142229Z 18018G24KT 03/M03 A301 RMK A01 T00331025  RH  066%=      5-min Rain = 0
KCA1 142230Z 18016G21KT 03/M03 A301 RMK A01 T00341027  RH  065%=      5-min Rain = 0
KCA1 142231Z 17014KT 03/M03 A301 RMK A01 T00341027  RH  065%=      5-min Rain = 0
KCA1 142232Z 18018KT 03/M03 A301 RMK A01 T00341027  RH  064%=      5-min Rain = 0
KCA1 142233Z 18018KT 04/M03 A301 RMK A01 T00351027  RH  064%=      5-min Rain = 0
KCA1 142234Z 20018KT 04/M03 A301 RMK A01 T00361026  RH  064%=      5-min Rain = 0
KCA1 142235Z 19015G20KT 04/M03 A301 RMK A01 T00381025  RH  064%=      5-min Rain = 0
KCA1 142236Z 19016KT 04/M03 A301 RMK A01 T00381025  RH  063%=      5-min Rain = 0
KCA1 142237Z 20016KT 04/M03 A301 RMK A01 T00381026  RH  063%=      5-min Rain = 0
KCA1 142238Z 18015KT 04/M03 A301 RMK A01 T00381025  RH  063%=      5-min Rain = 0
KCA1 142239Z 17018G24KT 04/M02 A301 RMK A01 T00401023  RH  063%=      5-min Rain = 0
KCA1 142240Z 17020KT 04/M02 A301 RMK A01 T00411024  RH  063%=      5-min Rain = 0
KCA1 142241Z 17018G26KT 04/M03 A301 RMK A01 T00391025  RH  063%=      5-min Rain = 0
KCA1 142242Z 18022KT 04/M03 A3009 RMK A01 T00371027  RH  063%=      5-min Rain = 0
KCA1 142243Z 18018KT 03/M03 A301 RMK A01 T00341028  RH  064%=      5-min Rain = 0
KCA1 142244Z 18017KT 03/M03 A301 RMK A01 T00331027  RH  065%=      5-min Rain = 0
KCA1 142245Z 18015KT 03/M03 A301 RMK A01 T00321027  RH  066%=      5-min Rain = 0
KCA1 142246Z 17017KT 03/M03 A301 RMK A01 T00311027  RH  066%=      5-min Rain = 0
KCA1 142247Z 17019G25KT 03/M03 A301 RMK A01 T00301027  RH  066%=      5-min Rain = 0
KCA1 142248Z 18018KT 03/M03 A301 RMK A01 T00291027  RH  066%=      5-min Rain = 0
KCA1 142249Z 18017KT 03/M03 A301 RMK A01 T00281028  RH  066%=      5-min Rain = 0
KCA1 142250Z 18019G25KT 03/M03 A301 RMK A01 T00281028  RH  067%=      5-min Rain = 0
KCA1 142251Z 18017KT 03/M03 A301 RMK A01 T00271028  RH  067%=      5-min Rain = 0
KCA1 142252Z 18016KT 03/M03 A301 RMK A01 T00271028  RH  067%=      5-min Rain = 0
KCA1 142253Z 18017KT 03/M03 A3009 RMK A01 T00271028  RH  067%=      5-min Rain = 0
KCA1 142254Z 18015KT 03/M03 A301 RMK A01 T00281027  RH  067%=      5-min Rain = 0
KCA1 142255Z 19018G23KT 03/M03 A3009 RMK A01 T00301026  RH  067%=      5-min Rain = 0
KCA1 142256Z 19019KT 03/M03 A3009 RMK A01 T00311026  RH  066%=      5-min Rain = 0
KCA1 142257Z 18018KT 03/M03 A3009 RMK A01 T00321026  RH  065%=      5-min Rain = 0
KCA1 142258Z 18016KT 03/M03 A3009 RMK A01 T00341026  RH  065%=      5-min Rain = 0
KCA1 142259Z 18015KT 04/M02 A3009 RMK A01 T00351024  RH  065%=      5-min Rain = 0
KCA1 142300Z 18017KT 04/M02 A3009 RMK A01 T00361024  RH  065%=      5-min Rain = 0
KCA1 142301Z 18020KT 04/M03 A3009 RMK A01 T00361025  RH  064%=      5-min Rain = 0
KCA1 142302Z 18020KT 04/M03 A3009 RMK A01 T00351027  RH  064%=      5-min Rain = 0
KCA1 142303Z 17018G23KT 03/M03 A3009 RMK A01 T00341027  RH  064%=      5-min Rain = 0
KCA1 142304Z 18019KT 03/M03 A3009 RMK A01 T00331029  RH  064%=      5-min Rain = 0
KCA1 142305Z 18016KT 03/M03 A3009 RMK A01 T00331028  RH  064%=      5-min Rain = 0
KCA1 142306Z 17014KT 03/M03 A3009 RMK A01 T00341025  RH  065%=      5-min Rain = 0
KCA1 142307Z 19015KT 04/M02 A3009 RMK A01 T00371024  RH  065%=      5-min Rain = 0
KCA1 142308Z 18015G20KT 04/M03 A3008 RMK A01 T00371025  RH  064%=      5-min Rain = 0
KCA1 142309Z 17020G25KT 04/M03 A3008 RMK A01 T00371025  RH  064%=      5-min Rain = 0
KCA1 142310Z 18019KT 04/M03 A3008 RMK A01 T00371025  RH  064%=      5-min Rain = 0
KCA1 142311Z 18019KT 04/M03 A3008 RMK A01 T00371025  RH  064%=      5-min Rain = 0
KCA1 142312Z 17017G22KT 04/M03 A3008 RMK A01 T00371025  RH  064%=      5-min Rain = 0
KCA1 142313Z 18018KT 04/M02 A3008 RMK A01 T00381024  RH  064%=      5-min Rain = 0
KCA1 142314Z 18017G24KT 04/M02 A3008 RMK A01 T00381024  RH  064%=      5-min Rain = 0
KCA1 142315Z 18016KT 04/M02 A3008 RMK A01 T00381024  RH  064%=      5-min Rain = 0
KCA1 142316Z 18020G27KT 04/M02 A3008 RMK A01 T00391024  RH  064%=      5-min Rain = 0
KCA1 142317Z 18019KT 04/M02 A3008 RMK A01 T00391024  RH  064%=      5-min Rain = 0
KCA1 142318Z 19018G23KT 04/M02 A3008 RMK A01 T00381023  RH  064%=      5-min Rain = 0
KCA1 142319Z 19022G28KT 04/M02 A3008 RMK A01 T00391023  RH  064%=      5-min Rain = 0
KCA1 142320Z 19019KT 04/M03 A3008 RMK A01 T00381025  RH  064%=      5-min Rain = 0
KCA1 142321Z 19020G25KT 04/M02 A3008 RMK A01 T00371024  RH  064%=      5-min Rain = 0
KCA1 142322Z 19019G24KT 04/M02 A3008 RMK A01 T00371024  RH  064%=      5-min Rain = 0
KCA1 142323Z 19018G23KT 04/M03 A3008 RMK A01 T00361025  RH  064%=      5-min Rain = 0
KCA1 142324Z 19018KT 04/M03 A3008 RMK A01 T00361025  RH  065%=      5-min Rain = 0
KCA1 142325Z 18017G23KT 04/M02 A3008 RMK A01 T00351024  RH  065%=      5-min Rain = 0
KCA1 142326Z 18018G23KT 04/M02 A3008 RMK A01 T00351024  RH  065%=      5-min Rain = 0
KCA1 142327Z 18020KT 04/M02 A3008 RMK A01 T00351024  RH  065%=      5-min Rain = 0
KCA1 142328Z 18018KT 04/M02 A3008 RMK A01 T00351024  RH  065%=      5-min Rain = 0
KCA1 142329Z 18017KT 04/M02 A3008 RMK A01 T00351024  RH  065%=      5-min Rain = 0
KCA1 142330Z 19017G22KT 04/M02 A3008 RMK A01 T00351024  RH  065%=      5-min Rain = 0
KCA1 142331Z 19016KT 04/M02 A3008 RMK A01 T00351023  RH  066%=      5-min Rain = 0
KCA1 142332Z 18013KT 04/M02 A3008 RMK A01 T00361023  RH  066%=      5-min Rain = 0
KCA1 142333Z 18014KT 04/M02 A3008 RMK A01 T00361022  RH  066%=      5-min Rain = 0
KCA1 142334Z 19015KT 04/M02 A3008 RMK A01 T00361022  RH  066%=      5-min Rain = 0
KCA1 142335Z 19016KT 04/M02 A3008 RMK A01 T00361022  RH  066%=      5-min Rain = 0
KCA1 142336Z 18013KT 04/M02 A3008 RMK A01 T00361022  RH  066%=      5-min Rain = 0
KCA1 142337Z 18012KT 04/M02 A3008 RMK A01 T00361022  RH  066%=      5-min Rain = 0
KCA1 142338Z 18012KT 04/M02 A3007 RMK A01 T00361021  RH  066%=      5-min Rain = 0
KCA1 142339Z 18011KT 04/M02 A3008 RMK A01 T00361021  RH  066%=      5-min Rain = 0
KCA1 142340Z 17014KT 04/M02 A3007 RMK A01 T00361021  RH  066%=      5-min Rain = 0
KCA1 142341Z 18013KT 04/M02 A3007 RMK A01 T00361021  RH  066%=      5-min Rain = 0
KCA1 142342Z 17013KT 04/M02 A3007 RMK A01 T00361022  RH  066%=      5-min Rain = 0
KCA1 142343Z 18013KT 04/M02 A3007 RMK A01 T00351022  RH  066%=      5-min Rain = 0
KCA1 142344Z 18015KT 04/M02 A3007 RMK A01 T00361021  RH  066%=      5-min Rain = 0
KCA1 142345Z 18016KT 04/M02 A3007 RMK A01 T00351023  RH  066%=      5-min Rain = 0
KCA1 142346Z 17013KT 03/M02 A3007 RMK A01 T00341023  RH  066%=      5-min Rain = 0
KCA1 142347Z 17013G18KT 03/M02 A3008 RMK A01 T00341022  RH  066%=      5-min Rain = 0
KCA1 142348Z 18015KT 03/M02 A3007 RMK A01 T00341022  RH  067%=      5-min Rain = 0
KCA1 142349Z 17018KT 03/M02 A3007 RMK A01 T00341023  RH  066%=      5-min Rain = 0
KCA1 142350Z 18018KT 03/M02 A3007 RMK A01 T00331024  RH  066%=      5-min Rain = 0
KCA1 142351Z 18015KT 03/M02 A3007 RMK A01 T00331024  RH  066%=      5-min Rain = 0
KCA1 142352Z 18015KT 03/M02 A3007 RMK A01 T00331023  RH  066%=      5-min Rain = 0
KCA1 142353Z 18015KT 03/M02 A3007 RMK A01 T00331024  RH  067%=      5-min Rain = 0
KCA1 142354Z 17016KT 03/M02 A3007 RMK A01 T00331023  RH  067%=      5-min Rain = 0
KCA1 142355Z 18015KT 03/M02 A3007 RMK A01 T00321023  RH  067%=      5-min Rain = 0
KCA1 142356Z 18016KT 03/M02 A3007 RMK A01 T00321024  RH  067%=      5-min Rain = 0
KCA1 142357Z 17012KT 03/M02 A3007 RMK A01 T00321024  RH  067%=      5-min Rain = 0
KCA1 142358Z 18015KT 03/M02 A3007 RMK A01 T00321023  RH  067%=      5-min Rain = 0
KCA1 142359Z 17013KT 03/M02 A3007 RMK A01 T00311024  RH  067%=      5-min Rain = 0
KCA1 150000Z 17016KT 03/M02 A3007 RMK A01 T00311024  RH  067%=      5-min Rain = 0
KCA1 150001Z 17015KT 03/M03 A3007 RMK A01 T00301025  RH  067%=      5-min Rain = 0
KCA1 150002Z 17013KT 03/M03 A3007 RMK A01 T00301025  RH  067%=      5-min Rain = 0
KCA1 150003Z 17015KT 03/M03 A3007 RMK A01 T00291026  RH  067%=      5-min Rain = 0
KCA1 150004Z 17014KT 03/M03 A3007 RMK A01 T00291026  RH  067%=      5-min Rain = 0
KCA1 150005Z 17015G21KT 03/M03 A3007 RMK A01 T00291026  RH  067%=      5-min Rain = 0
KCA1 150006Z 16013KT 03/M03 A3007 RMK A01 T00291026  RH  067%=      5-min Rain = 0
KCA1 150007Z 16014KT 03/M03 A3007 RMK A01 T00281026  RH  068%=      5-min Rain = 0
KCA1 150008Z 16016KT 03/M03 A3007 RMK A01 T00281026  RH  068%=      5-min Rain = 0
KCA1 150009Z 16013KT 03/M03 A3007 RMK A01 T00281026  RH  068%=      5-min Rain = 0
KCA1 150010Z 17013KT 03/M03 A3007 RMK A01 T00271026  RH  068%=      5-min Rain = 0
KCA1 150011Z 17015KT 03/M03 A3007 RMK A01 T00271026  RH  068%=      5-min Rain = 0
KCA1 150012Z 17013KT 03/M03 A3007 RMK A01 T00261026  RH  068%=      5-min Rain = 0
KCA1 150013Z 17015KT 03/M03 A3007 RMK A01 T00261026  RH  069%=      5-min Rain = 0
KCA1 150014Z 17014KT 03/M03 A3007 RMK A01 T00261026  RH  069%=      5-min Rain = 0
KCA1 150015Z 17015KT 03/M03 A3007 RMK A01 T00261026  RH  069%=      5-min Rain = 0
KCA1 150016Z 17016G21KT 03/M03 A3007 RMK A01 T00261026  RH  069%=      5-min Rain = 0
KCA1 150017Z 17014KT 03/M03 A3007 RMK A01 T00261026  RH  069%=      5-min Rain = 0
KCA1 150018Z 17016KT 03/M03 A3007 RMK A01 T00251026  RH  069%=      5-min Rain = 0
KCA1 150019Z 17013KT 03/M03 A3007 RMK A01 T00251026  RH  069%=      5-min Rain = 0
KCA1 150020Z 17014KT 03/M03 A3007 RMK A01 T00251026  RH  069%=      5-min Rain = 0
KCA1 150021Z 16014KT 02/M03 A3007 RMK A01 T00241026  RH  069%=      5-min Rain = 0
KCA1 150022Z 17013KT 02/M03 A3007 RMK A01 T00241026  RH  070%=      5-min Rain = 0
KCA1 150023Z 17014KT 02/M03 A3006 RMK A01 T00231026  RH  070%=      5-min Rain = 0
KCA1 150024Z 17014KT 02/M03 A3007 RMK A01 T00231026  RH  070%=      5-min Rain = 0
KCA1 150025Z 16017KT 02/M03 A3006 RMK A01 T00221026  RH  070%=      5-min Rain = 0
KCA1 150026Z 17016KT 02/M03 A3006 RMK A01 T00231026  RH  070%=      5-min Rain = 0
KCA1 150027Z 17015KT 02/M03 A3006 RMK A01 T00241026  RH  070%=      5-min Rain = 0
KCA1 150028Z 16015KT 02/M03 A3007 RMK A01 T00241026  RH  070%=      5-min Rain = 0
KCA1 150029Z 16015KT 02/M03 A3007 RMK A01 T00231026  RH  070%=      5-min Rain = 0
KCA1 150030Z 16014KT 02/M03 A3007 RMK A01 T00231026  RH  070%=      5-min Rain = 0
KCA1 150031Z 16014KT 02/M03 A3007 RMK A01 T00231026  RH  070%=      5-min Rain = 0
KCA1 150032Z 16015KT 02/M03 A3007 RMK A01 T00221026  RH  070%=      5-min Rain = 0
KCA1 150033Z 16012KT 02/M03 A3007 RMK A01 T00221027  RH  070%=      5-min Rain = 0
KCA1 150034Z 16012KT 02/M03 A3007 RMK A01 T00221027  RH  070%=      5-min Rain = 0
KCA1 150035Z 16011KT 02/M03 A3007 RMK A01 T00221027  RH  070%=      5-min Rain = 0
KCA1 150036Z 16012KT 02/M03 A3007 RMK A01 T00211027  RH  071%=      5-min Rain = 0
KCA1 150037Z 15011KT 02/M03 A3007 RMK A01 T00201026  RH  071%=      5-min Rain = 0
KCA1 150038Z 16011KT 02/M03 A3007 RMK A01 T00201027  RH  071%=      5-min Rain = 0
KCA1 150039Z 15013KT 02/M03 A3007 RMK A01 T00201026  RH  071%=      5-min Rain = 0
KCA1 150040Z 16012KT 02/M03 A3007 RMK A01 T00201026  RH  071%=      5-min Rain = 0
KCA1 150041Z 16012KT 02/M03 A3007 RMK A01 T00201026  RH  071%=      5-min Rain = 0
KCA1 150042Z 16012KT 02/M03 A3007 RMK A01 T00201026  RH  072%=      5-min Rain = 0
KCA1 150043Z 15011KT 02/M03 A3007 RMK A01 T00191026  RH  072%=      5-min Rain = 0
KCA1 150044Z 16012KT 02/M03 A3006 RMK A01 T00191026  RH  072%=      5-min Rain = 0
KCA1 150045Z 16011KT 02/M03 A3006 RMK A01 T00191026  RH  072%=      5-min Rain = 0
KCA1 150046Z 16011KT 02/M03 A3006 RMK A01 T00191026  RH  072%=      5-min Rain = 0
KCA1 150047Z 16010KT 02/M03 A3006 RMK A01 T00191025  RH  073%=      5-min Rain = 0
KCA1 150048Z 16011KT 02/M03 A3006 RMK A01 T00181025  RH  073%=      5-min Rain = 0
KCA1 150049Z 16012KT 02/M03 A3006 RMK A01 T00181025  RH  073%=      5-min Rain = 0
KCA1 150050Z 16012KT 02/M03 A3006 RMK A01 T00181025  RH  073%=      5-min Rain = 0
KCA1 150051Z 16012KT 02/M03 A3006 RMK A01 T00181025  RH  073%=      5-min Rain = 0
KCA1 150052Z 16011KT 02/M02 A3006 RMK A01 T00181024  RH  073%=      5-min Rain = 0
KCA1 150053Z 16013KT 02/M02 A3006 RMK A01 T00181024  RH  074%=      5-min Rain = 0
KCA1 150054Z 16014KT 02/M02 A3006 RMK A01 T00181024  RH  074%=      5-min Rain = 0
KCA1 150055Z 16013KT 02/M02 A3006 RMK A01 T00191023  RH  074%=      5-min Rain = 0
KCA1 150056Z 16013KT 02/M02 A3006 RMK A01 T00191024  RH  074%=      5-min Rain = 0
KCA1 150057Z 16013KT 02/M02 A3006 RMK A01 T00191023  RH  074%=      5-min Rain = 0
KCA1 150058Z 16014KT 02/M02 A3006 RMK A01 T00191023  RH  074%=      5-min Rain = 0
KCA1 150059Z 16015KT 02/M02 A3006 RMK A01 T00191023  RH  073%=      5-min Rain = 0
KCA1 150100Z 16013KT 02/M02 A3006 RMK A01 T00191023  RH  074%=      5-min Rain = 0
KCA1 150101Z 16014KT 02/M02 A3006 RMK A01 T00191023  RH  074%=      5-min Rain = 0
KCA1 150102Z 16014KT 02/M02 A3006 RMK A01 T00191023  RH  074%=      5-min Rain = 0
KCA1 150103Z 16014KT 02/M02 A3006 RMK A01 T00191022  RH  074%=      5-min Rain = 0
KCA1 150104Z 16014KT 02/M02 A3006 RMK A01 T00201022  RH  074%=      5-min Rain = 0
KCA1 150105Z 16013KT 02/M02 A3006 RMK A01 T00201022  RH  074%=      5-min Rain = 0
KCA1 150106Z 16014KT 02/M02 A3006 RMK A01 T00191022  RH  074%=      5-min Rain = 0
KCA1 150107Z 16013KT 02/M02 A3006 RMK A01 T00191022  RH  074%=      5-min Rain = 0
KCA1 150108Z 15013KT 02/M02 A3006 RMK A01 T00201021  RH  074%=      5-min Rain = 0
KCA1 150109Z 15012KT 02/M02 A3006 RMK A01 T00201021  RH  074%=      5-min Rain = 0
KCA1 150110Z 15012KT 02/M02 A3006 RMK A01 T00201021  RH  074%=      5-min Rain = 0
KCA1 150111Z 15014KT 02/M02 A3006 RMK A01 T00191022  RH  074%=      5-min Rain = 0
KCA1 150112Z 16010KT 02/M02 A3006 RMK A01 T00201021  RH  075%=      5-min Rain = 0
KCA1 150113Z 15010KT 02/M02 A3006 RMK A01 T00191021  RH  075%=      5-min Rain = 0
KCA1 150114Z 16012KT 02/M02 A3006 RMK A01 T00181022  RH  075%=      5-min Rain = 0
KCA1 150115Z 16012KT 02/M02 A3006 RMK A01 T00181021  RH  075%=      5-min Rain = 0
KCA1 150116Z 16012KT 02/M02 A3006 RMK A01 T00181021  RH  075%=      5-min Rain = 0
KCA1 150117Z 16013KT 02/M02 A3006 RMK A01 T00181021  RH  075%=      5-min Rain = 0
KCA1 150118Z 16012KT 02/M02 A3006 RMK A01 T00191021  RH  075%=      5-min Rain = 0
KCA1 150119Z 17013KT 02/M02 A3006 RMK A01 T00191021  RH  075%=      5-min Rain = 0
KCA1 150120Z 17013KT 02/M02 A3006 RMK A01 T00191021  RH  075%=      5-min Rain = 0
KCA1 150121Z 17012KT 02/M02 A3006 RMK A01 T00191021  RH  075%=      5-min Rain = 0
KCA1 150122Z 16013KT 02/M02 A3006 RMK A01 T00191021  RH  075%=      5-min Rain = 0
KCA1 150123Z 16012KT 02/M02 A3006 RMK A01 T00191021  RH  075%=      5-min Rain = 0
KCA1 150124Z 17011KT 02/M02 A3006 RMK A01 T00191021  RH  075%=      5-min Rain = 0
KCA1 150125Z 16012KT 02/M02 A3006 RMK A01 T00191020  RH  075%=      5-min Rain = 0
KCA1 150126Z 16013KT 02/M02 A3006 RMK A01 T00191021  RH  075%=      5-min Rain = 0
KCA1 150127Z 16011KT 02/M02 A3006 RMK A01 T00191021  RH  075%=      5-min Rain = 0
KCA1 150128Z 15011KT 02/M02 A3006 RMK A01 T00191021  RH  075%=      5-min Rain = 0
KCA1 150129Z 15011KT 02/M02 A3006 RMK A01 T00191021  RH  075%=      5-min Rain = 0
KCA1 150130Z 15011KT 02/M02 A3006 RMK A01 T00201021  RH  075%=      5-min Rain = 0
KCA1 150131Z 15009KT 02/M02 A3006 RMK A01 T00201020  RH  075%=      5-min Rain = 0
KCA1 150132Z 15010KT 02/M02 A3006 RMK A01 T00201021  RH  075%=      5-min Rain = 0
KCA1 150133Z 15012KT 02/M02 A3006 RMK A01 T00191021  RH  075%=      5-min Rain = 0
KCA1 150134Z 15011KT 02/M02 A3006 RMK A01 T00181021  RH  075%=      5-min Rain = 0
KCA1 150135Z 15009KT 02/M02 A3006 RMK A01 T00191021  RH  075%=      5-min Rain = 0
KCA1 150136Z 14010KT 02/M02 A3006 RMK A01 T00191021  RH  075%=      5-min Rain = 0
KCA1 150137Z 15011KT 02/M02 A3006 RMK A01 T00191021  RH  075%=      5-min Rain = 0
KCA1 150138Z 15010KT 02/M02 A3006 RMK A01 T00201020  RH  075%=      5-min Rain = 0
KCA1 150139Z 15009KT 02/M02 A3006 RMK A01 T00191020  RH  075%=      5-min Rain = 0
KCA1 150140Z 16010KT 02/M02 A3006 RMK A01 T00191021  RH  075%=      5-min Rain = 0
KCA1 150141Z 15009KT 02/M02 A3006 RMK A01 T00181021  RH  075%=      5-min Rain = 0
KCA1 150142Z 16009G14KT 02/M02 A3006 RMK A01 T00181021  RH  075%=      5-min Rain = 0
KCA1 150143Z 15007KT 02/M02 A3006 RMK A01 T00181020  RH  076%=      5-min Rain = 0
KCA1 150144Z 16010KT 02/M02 A3006 RMK A01 T00171021  RH  076%=      5-min Rain = 0
KCA1 150145Z 16007KT 02/M02 A3006 RMK A01 T00161021  RH  076%=      5-min Rain = 0
KCA1 150146Z 16010KT 02/M02 A3006 RMK A01 T00161021  RH  076%=      5-min Rain = 0
KCA1 150147Z 16011KT 02/M02 A3006 RMK A01 T00161021  RH  077%=      5-min Rain = 0
KCA1 150148Z 15010KT 02/M02 A3006 RMK A01 T00171020  RH  077%=      5-min Rain = 0
KCA1 150149Z 16012KT 02/M02 A3006 RMK A01 T00171020  RH  076%=      5-min Rain = 0
KCA1 150150Z 16012KT 02/M02 A3006 RMK A01 T00181020  RH  076%=      5-min Rain = 0
KCA1 150151Z 16011KT 02/M02 A3006 RMK A01 T00181020  RH  076%=      5-min Rain = 0
KCA1 150152Z 16011KT 02/M02 A3006 RMK A01 T00181020  RH  076%=      5-min Rain = 0
KCA1 150153Z 17012KT 02/M02 A3005 RMK A01 T00171019  RH  077%=      5-min Rain = 0
KCA1 150154Z 16011KT 02/M02 A3005 RMK A01 T00181019  RH  077%=      5-min Rain = 0
KCA1 150155Z 17011KT 02/M02 A3005 RMK A01 T00181018  RH  077%=      5-min Rain = 0
KCA1 150156Z 17011KT 02/M02 A3005 RMK A01 T00181018  RH  077%=      5-min Rain = 0
KCA1 150157Z 17011KT 02/M02 A3005 RMK A01 T00181018  RH  077%=      5-min Rain = 0
KCA1 150158Z 17012KT 02/M02 A3005 RMK A01 T00181018  RH  077%=      5-min Rain = 0
KCA1 150159Z 17014KT 02/M02 A3005 RMK A01 T00181018  RH  077%=      5-min Rain = 0
KCA1 150200Z 17012KT 02/M02 A3005 RMK A01 T00191017  RH  077%=      5-min Rain = 0
KCA1 150201Z 17012KT 02/M02 A3005 RMK A01 T00191017  RH  077%=      5-min Rain = 0
KCA1 150202Z 17011KT 02/M02 A3005 RMK A01 T00191017  RH  077%=      5-min Rain = 0
KCA1 150203Z 17013KT 02/M02 A3005 RMK A01 T00191017  RH  077%=      5-min Rain = 0
KCA1 150204Z 17011KT 02/M02 A3005 RMK A01 T00191017  RH  077%=      5-min Rain = 0
KCA1 150205Z 17013KT 02/M02 A3005 RMK A01 T00191017  RH  077%=      5-min Rain = 0
KCA1 150206Z 17012KT 02/M02 A3005 RMK A01 T00191017  RH  077%=      5-min Rain = 0
KCA1 150207Z 18013KT 02/M02 A3005 RMK A01 T00191017  RH  077%=      5-min Rain = 0
KCA1 150208Z 17010KT 02/M02 A3005 RMK A01 T00191017  RH  077%=      5-min Rain = 0
KCA1 150209Z 17012KT 02/M02 A3005 RMK A01 T00191017  RH  077%=      5-min Rain = 0
KCA1 150210Z 18014KT 02/M02 A3005 RMK A01 T00181017  RH  078%=      5-min Rain = 0
KCA1 150211Z 17012KT 02/M02 A3005 RMK A01 T00181016  RH  078%=      5-min Rain = 0
KCA1 150212Z 17014KT 02/M02 A3005 RMK A01 T00181017  RH  078%=      5-min Rain = 0
KCA1 150213Z 18016KT 02/M02 A3005 RMK A01 T00181016  RH  078%=      5-min Rain = 0
KCA1 150214Z 18014KT 02/M02 A3005 RMK A01 T00181016  RH  078%=      5-min Rain = 0
KCA1 150215Z 17015G20KT 02/M02 A3005 RMK A01 T00191016  RH  078%=      5-min Rain = 0
KCA1 150216Z 18013KT 02/M02 A3005 RMK A01 T00191016  RH  078%=      5-min Rain = 0
KCA1 150217Z 18013KT 02/M02 A3005 RMK A01 T00191016  RH  078%=      5-min Rain = 0
KCA1 150218Z 18012G17KT 02/M02 A3005 RMK A01 T00191016  RH  078%=      5-min Rain = 0
KCA1 150219Z 18014KT 02/M02 A3005 RMK A01 T00181016  RH  078%=      5-min Rain = 0
KCA1 150220Z 18013KT 02/M02 A3005 RMK A01 T00181016  RH  078%=      5-min Rain = 0
KCA1 150221Z 18012KT 02/M02 A3005 RMK A01 T00181016  RH  078%=      5-min Rain = 0
KCA1 150222Z 17012KT 02/M02 A3005 RMK A01 T00171016  RH  079%=      5-min Rain = 0
KCA1 150223Z 18012KT 02/M02 A3005 RMK A01 T00171016  RH  079%=      5-min Rain = 0
KCA1 150224Z 17012KT 02/M02 A3005 RMK A01 T00171016  RH  079%=      5-min Rain = 0
KCA1 150225Z 18012KT 02/M02 A3005 RMK A01 T00171015  RH  079%=      5-min Rain = 0
KCA1 150226Z 17014KT 02/M02 A3004 RMK A01 T00171015  RH  079%=      5-min Rain = 0
KCA1 150227Z 18011KT 02/M02 A3004 RMK A01 T00171015  RH  079%=      5-min Rain = 0
KCA1 150228Z 18011KT 02/M02 A3004 RMK A01 T00181015  RH  079%=      5-min Rain = 0
KCA1 150229Z 17013G18KT 02/M02 A3005 RMK A01 T00181015  RH  079%=      5-min Rain = 0
KCA1 150230Z 18014KT 02/M02 A3004 RMK A01 T00181015  RH  079%=      5-min Rain = 0
KCA1 150231Z 19011G18KT 02/M02 A3004 RMK A01 T00181015  RH  079%=      5-min Rain = 0
KCA1 150232Z 18013KT 02/M02 A3004 RMK A01 T00171015  RH  079%=      5-min Rain = 0
KCA1 150233Z 18010KT 02/M02 A3004 RMK A01 T00171015  RH  079%=      5-min Rain = 0
KCA1 150234Z 18017KT 02/M02 A3004 RMK A01 T00171015  RH  079%=      5-min Rain = 0
KCA1 150235Z 18016KT 02/M01 A3004 RMK A01 T00171014  RH  080%=      5-min Rain = 0
KCA1 150236Z 18013KT 02/M01 A3004 RMK A01 T00171014  RH  080%=      5-min Rain = 0
KCA1 150237Z 19013G20KT 02/M02 A3004 RMK A01 T00171015  RH  080%=      5-min Rain = 0
KCA1 150238Z 18012KT 02/M01 A3004 RMK A01 T00171014  RH  080%=      5-min Rain = 0
KCA1 150239Z 18015G20KT 02/M01 A3004 RMK A01 T00161014  RH  080%=      5-min Rain = 0
KCA1 150240Z 19013G18KT 02/M01 A3004 RMK A01 T00171014  RH  080%=      5-min Rain = 0
KCA1 150241Z 18013KT 02/M01 A3004 RMK A01 T00171014  RH  080%=      5-min Rain = 0
KCA1 150242Z 18013KT 02/M01 A3004 RMK A01 T00171014  RH  080%=      5-min Rain = 0
KCA1 150243Z 18017G24KT 02/M01 A3004 RMK A01 T00171014  RH  080%=      5-min Rain = 0
KCA1 150244Z 18015G20KT 02/M01 A3004 RMK A01 T00171013  RH  080%=      5-min Rain = 0
KCA1 150245Z 19014G19KT 02/M01 A3004 RMK A01 T00171014  RH  080%=      5-min Rain = 0
KCA1 150246Z 18014G21KT 02/M01 A3004 RMK A01 T00171013  RH  080%=      5-min Rain = 0
KCA1 150247Z 18014KT 02/M01 A3004 RMK A01 T00171013  RH  080%=      5-min Rain = 0
KCA1 150248Z 18013KT 02/M01 A3004 RMK A01 T00171013  RH  080%=      5-min Rain = 0
KCA1 150249Z 18016G21KT 02/M01 A3004 RMK A01 T00171013  RH  080%=      5-min Rain = 0
KCA1 150250Z 19015KT 02/M01 A3004 RMK A01 T00181013  RH  080%=      5-min Rain = 0
KCA1 150251Z 19014KT 02/M01 A3004 RMK A01 T00191013  RH  080%=      5-min Rain = 0
KCA1 150252Z 18014G19KT 02/M01 A3004 RMK A01 T00191013  RH  080%=      5-min Rain = 0
KCA1 150253Z 18014G24KT 02/M01 A3004 RMK A01 T00181013  RH  080%=      5-min Rain = 0
KCA1 150254Z 18015KT 02/M01 A3004 RMK A01 T00191012  RH  080%=      5-min Rain = 0
KCA1 150255Z 18013KT 02/M01 A3004 RMK A01 T00191012  RH  080%=      5-min Rain = 0
KCA1 150256Z 18016G21KT 02/M01 A3004 RMK A01 T00201012  RH  080%=      5-min Rain = 0
KCA1 150257Z 18013KT 02/M01 A3004 RMK A01 T00201012  RH  080%=      5-min Rain = 0
KCA1 150258Z 18013KT 02/M01 A3004 RMK A01 T00201012  RH  079%=      5-min Rain = 0
KCA1 150259Z 18017G22KT 02/M01 A3004 RMK A01 T00201011  RH  080%=      5-min Rain = 0
KCA1 150300Z 18014KT 02/M01 A3004 RMK A01 T00201011  RH  080%=      5-min Rain = 0
KCA1 150301Z 19017G23KT 02/M01 A3003 RMK A01 T00201011  RH  080%=      5-min Rain = 0
KCA1 150302Z 19018KT 02/M01 A3003 RMK A01 T00211011  RH  080%=      5-min Rain = 0
KCA1 150303Z 19021G29KT 02/M01 A3003 RMK A01 T00211011  RH  080%=      5-min Rain = 0
KCA1 150304Z 19015G20KT 02/M01 A3003 RMK A01 T00211010  RH  080%=      5-min Rain = 0
KCA1 150305Z 19019G24KT 02/M01 A3003 RMK A01 T00221010  RH  080%=      5-min Rain = 0
KCA1 150306Z 18019G27KT 02/M01 A3003 RMK A01 T00221009  RH  080%=      5-min Rain = 0
KCA1 150307Z 19020G25KT 02/M01 A3003 RMK A01 T00221009  RH  080%=      5-min Rain = 0
KCA1 150308Z 19019G24KT 02/M01 A3003 RMK A01 T00231008  RH  080%=      5-min Rain = 0
KCA1 150309Z 18020G28KT 02/M01 A3003 RMK A01 T00231008  RH  080%=      5-min Rain = 0
KCA1 150310Z 18023G30KT 02/M01 A3003 RMK A01 T00231008  RH  080%=      5-min Rain = 0
KCA1 150311Z 18020KT 02/M01 A3003 RMK A01 T00231009  RH  080%=      5-min Rain = 0
KCA1 150312Z 18020G28KT 02/M01 A3003 RMK A01 T00231009  RH  080%=      5-min Rain = 0
KCA1 150313Z 19024G31KT 02/M01 A3003 RMK A01 T00231008  RH  080%=      5-min Rain = 0
KCA1 150314Z 19026KT 02/M01 A3003 RMK A01 T00231008  RH  080%=      5-min Rain = 0
KCA1 150315Z 19024G29KT 02/M01 A3003 RMK A01 T00241008  RH  079%=      5-min Rain = 0
KCA1 150316Z 18021G26KT 02/M01 A3003 RMK A01 T00241008  RH  079%=      5-min Rain = 0
KCA1 150317Z 18024G29KT 02/M01 A3002 RMK A01 T00241008  RH  079%=      5-min Rain = 0
KCA1 150318Z 19018G23KT 02/M01 A3003 RMK A01 T00241008  RH  079%=      5-min Rain = 0
KCA1 150319Z 18021G26KT 02/M01 A3002 RMK A01 T00241008  RH  080%=      5-min Rain = 0
KCA1 150320Z 19022G27KT 02/M01 A3003 RMK A01 T00241008  RH  080%=      5-min Rain = 0
KCA1 150321Z 18023G30KT 02/M01 A3003 RMK A01 T00231008  RH  080%=      5-min Rain = 0
KCA1 150322Z 19021KT 02/M01 A3003 RMK A01 T00231008  RH  080%=      5-min Rain = 0
KCA1 150323Z 18017G23KT 02/M01 A3003 RMK A01 T00231008  RH  080%=      5-min Rain = 0
KCA1 150324Z 18018G25KT 02/M01 A3003 RMK A01 T00221008  RH  080%=      5-min Rain = 0
KCA1 150325Z 19016KT 02/M01 A3003 RMK A01 T00221008  RH  081%=      5-min Rain = 0
KCA1 150326Z 19024G31KT 02/M01 A3003 RMK A01 T00221008  RH  081%=      5-min Rain = 0
KCA1 150327Z 19021G28KT 02/M01 A3003 RMK A01 T00231007  RH  081%=      5-min Rain = 0
KCA1 150328Z 19020G25KT 02/M01 A3003 RMK A01 T00231007  RH  080%=      5-min Rain = 0
KCA1 150329Z 18015G24KT 02/M01 A3003 RMK A01 T00231007  RH  080%=      5-min Rain = 0
KCA1 150330Z 19017G22KT 02/M01 A3003 RMK A01 T00221008  RH  081%=      5-min Rain = 0
KCA1 150331Z 19022G29KT 02/M01 A3003 RMK A01 T00221007  RH  081%=      5-min Rain = 0
KCA1 150332Z 19020G25KT 02/M01 A3003 RMK A01 T00221007  RH  081%=      5-min Rain = 0
KCA1 150333Z 19014G19KT 02/M01 A3003 RMK A01 T00231007  RH  081%=      5-min Rain = 0
KCA1 150334Z 19016KT 02/M01 A3003 RMK A01 T00221007  RH  081%=      5-min Rain = 0
KCA1 150335Z 19019G24KT 02/M01 A3003 RMK A01 T00221007  RH  081%=      5-min Rain = 0
KCA1 150336Z 19021KT 02/M01 A3003 RMK A01 T00221006  RH  081%=      5-min Rain = 0
KCA1 150337Z 19018G26KT 02/M01 A3003 RMK A01 T00231007  RH  081%=      5-min Rain = 0
KCA1 150338Z 19019G24KT 02/M01 A3002 RMK A01 T00231007  RH  081%=      5-min Rain = 0
KCA1 150339Z 18017G22KT 02/M01 A3002 RMK A01 T00231006  RH  081%=      5-min Rain = 0
KCA1 150340Z 19017G23KT 02/M01 A3002 RMK A01 T00231006  RH  081%=      5-min Rain = 0
KCA1 150341Z 19022G27KT 02/M01 A3002 RMK A01 T00231006  RH  082%=      5-min Rain = 0
KCA1 150342Z 18020G28KT 02/M01 A3002 RMK A01 T00231005  RH  081%=      5-min Rain = 0
KCA1 150343Z 19020G27KT 02/M01 A3002 RMK A01 T00241005  RH  081%=      5-min Rain = 0
KCA1 150344Z 19022G28KT 02/M01 A3002 RMK A01 T00241005  RH  081%=      5-min Rain = 0
KCA1 150345Z 18021G28KT 02/M01 A3002 RMK A01 T00241005  RH  081%=      5-min Rain = 0
KCA1 150346Z 19017KT 03/M01 A3002 RMK A01 T00251005  RH  081%=      5-min Rain = 0
KCA1 150347Z 19019KT 02/M01 A3002 RMK A01 T00241006  RH  081%=      5-min Rain = 0
KCA1 150348Z 19022G28KT 02/M01 A3002 RMK A01 T00241005  RH  081%=      5-min Rain = 0
KCA1 150349Z 18022KT 02/M01 A3002 RMK A01 T00241005  RH  081%=      5-min Rain = 0
KCA1 150350Z 19019G25KT 02/M01 A3002 RMK A01 T00241005  RH  081%=      5-min Rain = 0
KCA1 150351Z 19021G29KT 02/M01 A3002 RMK A01 T00241005  RH  081%=      5-min Rain = 0
KCA1 150352Z 19022G28KT 02/M01 A3002 RMK A01 T00241005  RH  081%=      5-min Rain = 0
KCA1 150353Z 19021G30KT 02/M01 A3002 RMK A01 T00241005  RH  081%=      5-min Rain = 0
KCA1 150354Z 19018KT 02/M01 A3002 RMK A01 T00241005  RH  081%=      5-min Rain = 0
KCA1 150355Z 19021KT 02/M01 A3002 RMK A01 T00241005  RH  081%=      5-min Rain = 0
KCA1 150356Z 19019KT 02/M01 A3002 RMK A01 T00241005  RH  081%=      5-min Rain = 0
KCA1 150357Z 19021KT 02/M01 A3002 RMK A01 T00241005  RH  081%=      5-min Rain = 0
KCA1 150358Z 19016G22KT 02/M01 A3002 RMK A01 T00241005  RH  081%=      5-min Rain = 0
KCA1 150359Z 19018G23KT 02/M01 A3002 RMK A01 T00241005  RH  081%=      5-min Rain = 0
KCA1 150400Z 19021KT 02/M01 A3002 RMK A01 T00241005  RH  081%=      5-min Rain = 0
KCA1 150401Z 19016G22KT 02/M01 A3003 RMK A01 T00241005  RH  081%=      5-min Rain = 0
KCA1 150402Z 18020KT 02/M01 A3002 RMK A01 T00231005  RH  082%=      5-min Rain = 0
KCA1 150403Z 19017G25KT 02/M01 A3002 RMK A01 T00231005  RH  082%=      5-min Rain = 0
KCA1 150404Z 19020G29KT 02/M01 A3002 RMK A01 T00231005  RH  082%=      5-min Rain = 0
KCA1 150405Z 19022KT 02/M01 A3002 RMK A01 T00231005  RH  082%=      5-min Rain = 0
KCA1 150406Z 19019G26KT 02/M01 A3002 RMK A01 T00231005  RH  082%=      5-min Rain = 0
KCA1 150407Z 19016G21KT 02/M01 A3002 RMK A01 T00241005  RH  082%=      5-min Rain = 0
KCA1 150408Z 19018G23KT 02/M01 A3002 RMK A01 T00231005  RH  082%=      5-min Rain = 0
KCA1 150409Z 19018KT 02/M01 A3002 RMK A01 T00231005  RH  082%=      5-min Rain = 0
KCA1 150410Z 18019KT 02/M01 A3002 RMK A01 T00231005  RH  082%=      5-min Rain = 0
KCA1 150411Z 18018KT 02/M01 A3002 RMK A01 T00231005  RH  082%=      5-min Rain = 0
KCA1 150412Z 19016KT 02/M01 A3002 RMK A01 T00231005  RH  082%=      5-min Rain = 0
KCA1 150413Z 18016KT 02/M01 A3002 RMK A01 T00231005  RH  082%=      5-min Rain = 0
KCA1 150414Z 19018KT 02/M01 A3002 RMK A01 T00231005  RH  082%=      5-min Rain = 0
KCA1 150415Z 19019G27KT 02/M01 A3002 RMK A01 T00231005  RH  082%=      5-min Rain = 0
KCA1 150416Z 19013G18KT 02/M00 A3002 RMK A01 T00241004  RH  082%=      5-min Rain = 0
KCA1 150417Z 18018G26KT 02/M01 A3002 RMK A01 T00231005  RH  082%=      5-min Rain = 0
KCA1 150418Z 19016G21KT 02/M00 A3002 RMK A01 T00231004  RH  082%=      5-min Rain = 0
KCA1 150419Z 19018KT 02/M00 A3002 RMK A01 T00231004  RH  082%=      5-min Rain = 0
KCA1 150420Z 18019KT 02/M00 A3002 RMK A01 T00231004  RH  082%=      5-min Rain = 0
KCA1 150421Z 18019KT 02/M00 A3002 RMK A01 T00241003  RH  082%=      5-min Rain = 0
KCA1 150422Z 19020KT 02/M00 A3002 RMK A01 T00241003  RH  082%=      5-min Rain = 0
KCA1 150423Z 18018KT 03/M00 A3001 RMK A01 T00251003  RH  082%=      5-min Rain = 0
KCA1 150424Z 18019KT 03/M00 A3002 RMK A01 T00261003  RH  082%=      5-min Rain = 0
KCA1 150425Z 18018G23KT 03/M00 A3001 RMK A01 T00261003  RH  082%=      5-min Rain = 0
KCA1 150426Z 19019KT 03/M00 A3001 RMK A01 T00261002  RH  082%=      5-min Rain = 0
KCA1 150427Z 18018G23KT 03/M00 A3001 RMK A01 T00261003  RH  082%=      5-min Rain = 0
KCA1 150428Z 19025G30KT 03/M00 A3001 RMK A01 T00261002  RH  082%=      5-min Rain = 0
KCA1 150429Z 18021KT 03/M00 A3001 RMK A01 T00271002  RH  081%=      5-min Rain = 0
KCA1 150430Z 19018KT 03/M00 A3001 RMK A01 T00271002  RH  081%=      5-min Rain = 0
KCA1 150431Z 19019KT 03/M00 A3001 RMK A01 T00271002  RH  081%=      5-min Rain = 0
KCA1 150432Z 18024G30KT 03/M00 A3001 RMK A01 T00271002  RH  081%=      5-min Rain = 0
KCA1 150433Z 19020KT 03/M00 A3001 RMK A01 T00271002  RH  081%=      5-min Rain = 0
KCA1 150434Z 18016G22KT 03/M00 A3001 RMK A01 T00271002  RH  081%=      5-min Rain = 0
KCA1 150435Z 18017G22KT 03/M00 A3001 RMK A01 T00271002  RH  081%=      5-min Rain = 0
KCA1 150436Z 18021KT 03/M00 A3001 RMK A01 T00261002  RH  082%=      5-min Rain = 0
KCA1 150437Z 18018KT 03/M00 A3001 RMK A01 T00261002  RH  082%=      5-min Rain = 0
KCA1 150438Z 19020G28KT 03/M00 A3001 RMK A01 T00271002  RH  082%=      5-min Rain = 0
KCA1 150439Z 18020G25KT 03/M00 A3001 RMK A01 T00271001  RH  081%=      5-min Rain = 0
KCA1 150440Z 19020KT 03/M00 A3001 RMK A01 T00281002  RH  081%=      5-min Rain = 0
KCA1 150441Z 19023G28KT 03/M00 A30 RMK A01 T00281001  RH  081%=      5-min Rain = 0
KCA1 150442Z 19020G25KT 03/M00 A30 RMK A01 T00281002  RH  081%=      5-min Rain = 0
KCA1 150443Z 19019G25KT 03/M00 A30 RMK A01 T00281001  RH  081%=      5-min Rain = 0
KCA1 150444Z 19022KT 03/M00 A30 RMK A01 T00281002  RH  081%=      5-min Rain = 0
KCA1 150445Z 18019G26KT 03/M00 A30 RMK A01 T00281002  RH  081%=      5-min Rain = 0
KCA1 150446Z 18020G27KT 03/M00 A30 RMK A01 T00281001  RH  081%=      5-min Rain = 0
KCA1 150447Z 18020G25KT 03/M00 A30 RMK A01 T00271001  RH  081%=      5-min Rain = 0
KCA1 150448Z 18021G26KT 03/M00 A30 RMK A01 T00271001  RH  082%=      5-min Rain = 0
KCA1 150449Z 19019G24KT 03/M00 A30 RMK A01 T00271001  RH  082%=      5-min Rain = 0
KCA1 150450Z 18017G22KT 03/M00 A30 RMK A01 T00271001  RH  082%=      5-min Rain = 0
KCA1 150451Z 19019G26KT 03/M00 A30 RMK A01 T00261002  RH  082%=      5-min Rain = 0
KCA1 150452Z 18021KT 03/M00 A30 RMK A01 T00261001  RH  082%=      5-min Rain = 0
KCA1 150453Z 18021G26KT 03/M00 A30 RMK A01 T00271001  RH  082%=      5-min Rain = 0
KCA1 150454Z 19023KT 03/M00 A30 RMK A01 T00271001  RH  082%=      5-min Rain = 0
KCA1 150455Z 18018G26KT 03/M00 A30 RMK A01 T00271001  RH  082%=      5-min Rain = 0
KCA1 150456Z 19024G29KT 03/M00 A30 RMK A01 T00271001  RH  082%=      5-min Rain = 0
KCA1 150457Z 19022KT 03/M00 A30 RMK A01 T00271001  RH  082%=      5-min Rain = 0
KCA1 150458Z 19017G22KT 03/M00 A30 RMK A01 T00271001  RH  082%=      5-min Rain = 0
KCA1 150459Z 19017KT 03/M00 A30 RMK A01 T00271001  RH  082%=      5-min Rain = 0
KCA1 150500Z 19016KT 03/M00 A30 RMK A01 T00261001  RH  082%=      5-min Rain = 0
KCA1 150501Z 19017KT 03/M00 A30 RMK A01 T00271001  RH  082%=      5-min Rain = 0
KCA1 150502Z 19017KT 03/M00 A30 RMK A01 T00261001  RH  082%=      5-min Rain = 0
KCA1 150503Z 19016KT 03/M00 A30 RMK A01 T00261001  RH  082%=      5-min Rain = 0
KCA1 150504Z 19016KT 03/00 A30 RMK A01 T002600-0  RH  083%=      5-min Rain = 0
KCA1 150505Z 19017G26KT 03/M00 A30 RMK A01 T00261001  RH  083%=      5-min Rain = 0
KCA1 150506Z 19020KT 03/00 A30 RMK A01 T002700-0  RH  082%=      5-min Rain = 0
KCA1 150507Z 19017G23KT 03/00 A30 RMK A01 T00270000  RH  082%=      5-min Rain = 0
KCA1 150508Z 19019G24KT 03/00 A30 RMK A01 T00280000  RH  082%=      5-min Rain = 0
KCA1 150509Z 20020G25KT 03/00 A30 RMK A01 T00280000  RH  082%=      5-min Rain = 0
KCA1 150510Z 19016G21KT 03/00 A30 RMK A01 T00280000  RH  082%=      5-min Rain = 0
KCA1 150511Z 19018G25KT 03/00 A30 RMK A01 T00280000  RH  082%=      5-min Rain = 0
KCA1 150512Z 19015KT 03/00 A30 RMK A01 T00280001  RH  082%=      5-min Rain = 0
KCA1 150513Z 19015G22KT 03/00 A30 RMK A01 T00280000  RH  082%=      5-min Rain = 0
KCA1 150514Z 19018G23KT 03/00 A30 RMK A01 T00280000  RH  082%=      5-min Rain = 0
KCA1 150515Z 19018G25KT 03/00 A30 RMK A01 T00280001  RH  082%=      5-min Rain = 0
KCA1 150516Z 19021G27KT 03/00 A30 RMK A01 T00280001  RH  082%=      5-min Rain = 0
KCA1 150517Z 20019KT 03/00 A30 RMK A01 T00290001  RH  082%=      5-min Rain = 0
KCA1 150518Z 19017KT 03/00 A30 RMK A01 T00290001  RH  082%=      5-min Rain = 0
KCA1 150519Z 19014KT 03/00 A30 RMK A01 T00290001  RH  082%=      5-min Rain = 0
KCA1 150520Z 19015KT 03/00 A30 RMK A01 T00290000  RH  082%=      5-min Rain = 0
KCA1 150521Z 19018KT 03/00 A30 RMK A01 T00280000  RH  082%=      5-min Rain = 0
KCA1 150522Z 18017G22KT 03/00 A30 RMK A01 T00280001  RH  082%=      5-min Rain = 0
KCA1 150523Z 18017G22KT 03/00 A30 RMK A01 T00280000  RH  082%=      5-min Rain = 0
KCA1 150524Z 19017G24KT 03/00 A30 RMK A01 T00280001  RH  082%=      5-min Rain = 0
KCA1 150525Z 19016KT 03/00 A30 RMK A01 T00280001  RH  082%=      5-min Rain = 0
KCA1 150526Z 18018G23KT 03/00 A30 RMK A01 T00280001  RH  082%=      5-min Rain = 0
KCA1 150527Z 19020G25KT 03/00 A30 RMK A01 T00280001  RH  082%=      5-min Rain = 0
KCA1 150528Z 18018G23KT 03/00 A30 RMK A01 T00280001  RH  082%=      5-min Rain = 0
KCA1 150529Z 19020KT 03/00 A30 RMK A01 T00280001  RH  082%=      5-min Rain = 0
KCA1 150530Z 19020G25KT 03/00 A30 RMK A01 T00280001  RH  082%=      5-min Rain = 0
KCA1 150531Z 18017G22KT 03/00 A30 RMK A01 T00280001  RH  082%=      5-min Rain = 0
KCA1 150532Z 19017G23KT 03/00 A30 RMK A01 T00280001  RH  082%=      5-min Rain = 0
KCA1 150533Z 19018KT 03/00 A30 RMK A01 T00280001  RH  082%=      5-min Rain = 0
KCA1 150534Z 19017G24KT 03/00 A30 RMK A01 T00280001  RH  083%=      5-min Rain = 0
KCA1 150535Z 20017G23KT 03/00 A30 RMK A01 T00280001  RH  083%=      5-min Rain = 0
KCA1 150536Z 20015KT 03/00 A30 RMK A01 T00280001  RH  082%=      5-min Rain = 0
KCA1 150537Z 19017KT 03/00 A30 RMK A01 T00280001  RH  083%=      5-min Rain = 0
KCA1 150538Z 19017G22KT 03/00 A30 RMK A01 T00290002  RH  083%=      5-min Rain = 0
KCA1 150539Z 19018KT 03/00 A30 RMK A01 T00290002  RH  082%=      5-min Rain = 0
KCA1 150540Z 19019G26KT 03/00 A30 RMK A01 T00290002  RH  082%=      5-min Rain = 0
KCA1 150541Z 19018KT 03/00 A30 RMK A01 T00300003  RH  082%=      5-min Rain = 0
KCA1 150542Z 19021KT 03/00 A30 RMK A01 T00300002  RH  082%=      5-min Rain = 0
KCA1 150543Z 19017G22KT 03/00 A30 RMK A01 T00310003  RH  082%=      5-min Rain = 0
KCA1 150544Z 19017G22KT 03/00 A30 RMK A01 T00300003  RH  082%=      5-min Rain = 0
KCA1 150545Z 19021KT 03/00 A30 RMK A01 T00300003  RH  082%=      5-min Rain = 0
KCA1 150546Z 19017KT 03/00 A30 RMK A01 T00300002  RH  082%=      5-min Rain = 0
KCA1 150547Z 19018KT 03/00 A30 RMK A01 T00300002  RH  082%=      5-min Rain = 0
KCA1 150548Z 19017KT 03/00 A30 RMK A01 T00300002  RH  082%=      5-min Rain = 0
KCA1 150549Z 19017KT 03/00 A30 RMK A01 T00300003  RH  082%=      5-min Rain = 0
KCA1 150550Z 20013G18KT 03/00 A30 RMK A01 T00290003  RH  083%=      5-min Rain = 0
KCA1 150551Z 20017KT 03/00 A30 RMK A01 T00290002  RH  083%=      5-min Rain = 0
KCA1 150552Z 20020G25KT 03/00 A30 RMK A01 T00290003  RH  083%=      5-min Rain = 0
KCA1 150553Z 19016KT 03/00 A30 RMK A01 T00290003  RH  083%=      5-min Rain = 0
KCA1 150554Z 19015G20KT 03/00 A30 RMK A01 T00290003  RH  083%=      5-min Rain = 0
KCA1 150555Z 19017G22KT 03/00 A30 RMK A01 T00290003  RH  083%=      5-min Rain = 0
KCA1 150556Z 19013KT 03/00 A30 RMK A01 T00290004  RH  083%=      5-min Rain = 0
KCA1 150557Z 19014KT 03/00 A30 RMK A01 T00290003  RH  083%=      5-min Rain = 0
KCA1 150558Z 19013KT 03/00 A30 RMK A01 T00280003  RH  084%=      5-min Rain = 0
KCA1 150559Z 19016KT 03/00 A30 RMK A01 T00280003  RH  084%=      5-min Rain = 0

Page generated in 0.2574 seconds.